PWSweather.com
Personal Weather Stations
Station Observations
KOHREFORM1
Reform, Ohio, Newark, OH 43055

Reform, OhioNewark, OH 43055

Lat: 40.1502, Lon: -82.2417

Elevation: 1043

Station Type: Davis Vantage Pro 2 Plus

randysweatheronthehill.com

High Low Average
Temperature 59.6°F15.3°C 44.2°F6.8°C 48.9°F9.4°C
Dew Point 57.6°F14.2°C 41.2°F5.1°C 46.5°F8.1°C
Winds 12.0 mph 19.3 kmh Calm Calm 2.0 mph SSE3.2 kmh SSE
Wind Gusts 17.0 mph27.4 kmh -- 6.0 mph9.7 kmh
Humidity 97% 92% 95%
Pressure 29.88 in1011.9 mb 29.56 in1001.0 mb -
Precipitation 2.21 in56.1 mm - -
Hour Temp Dew Point Humidity Winds Wind Gusts Pressure Precip Precip Rate Daily Precip Total
12:00 AM 49.4°F9.7°C 46.3°F7.9°C 93% 2.0 mph NE3.2 kmh NE 8.0 mph12.9 kmh 29.88 in1011.9 mb 0.00 in0.0 mm 0.00 in0.0 mm 0.00 in0.0 mm
12:02 AM 49.4°F9.7°C 46.3°F7.9°C 93% 2.0 mph NE3.2 kmh NE 8.0 mph12.9 kmh 29.88 in1011.9 mb 0.00 in0.0 mm 0.00 in0.0 mm 0.00 in0.0 mm
12:04 AM 49.3°F9.6°C 45.9°F7.7°C 92% 2.0 mph NE3.2 kmh NE 8.0 mph12.9 kmh 29.89 in1012.2 mb 0.00 in0.0 mm 0.00 in0.0 mm 0.00 in0.0 mm
12:06 AM 49.2°F9.6°C 45.8°F7.7°C 92% 2.0 mph ENE3.2 kmh ENE 8.0 mph12.9 kmh 29.89 in1012.2 mb 0.00 in0.0 mm 0.00 in0.0 mm 0.00 in0.0 mm
12:08 AM 49.0°F9.4°C 45.6°F7.6°C 92% 4.0 mph NE6.4 kmh NE 8.0 mph12.9 kmh 29.89 in1012.2 mb 0.00 in0.0 mm 0.00 in0.0 mm 0.00 in0.0 mm
12:10 AM 48.9°F9.4°C 45.5°F7.5°C 92% 3.0 mph NNE4.8 kmh NNE 8.0 mph12.9 kmh 29.89 in1012.2 mb 0.00 in0.0 mm 0.00 in0.0 mm 0.00 in0.0 mm
12:12 AM 48.6°F9.2°C 45.2°F7.3°C 92% 3.0 mph NE4.8 kmh NE 6.0 mph9.7 kmh 29.89 in1012.2 mb 0.00 in0.0 mm 0.00 in0.0 mm 0.00 in0.0 mm
12:14 AM 48.5°F9.2°C 45.1°F7.3°C 92% 3.0 mph NE4.8 kmh NE 6.0 mph9.7 kmh 29.89 in1012.2 mb 0.00 in0.0 mm 0.00 in0.0 mm 0.00 in0.0 mm
12:16 AM 48.3°F9.1°C 44.9°F7.2°C 92% 3.0 mph NE4.8 kmh NE 6.0 mph9.7 kmh 29.89 in1012.2 mb 0.00 in0.0 mm 0.00 in0.0 mm 0.00 in0.0 mm
12:18 AM 48.1°F8.9°C 44.7°F7.1°C 92% 5.0 mph ENE8.0 kmh ENE 6.0 mph9.7 kmh 29.89 in1012.2 mb 0.00 in0.0 mm 0.00 in0.0 mm 0.00 in0.0 mm
12:20 AM 47.9°F8.8°C 44.5°F6.9°C 92% 1.0 mph E1.6 kmh E 7.0 mph11.3 kmh 29.89 in1012.2 mb 0.00 in0.0 mm 0.00 in0.0 mm 0.00 in0.0 mm
12:22 AM 47.8°F8.8°C 44.4°F6.9°C 92% 3.0 mph NE4.8 kmh NE 7.0 mph11.3 kmh 29.89 in1012.2 mb 0.00 in0.0 mm 0.00 in0.0 mm 0.00 in0.0 mm
12:24 AM 47.7°F8.7°C 44.3°F6.8°C 92% 4.0 mph NE6.4 kmh NE 7.0 mph11.3 kmh 29.88 in1011.9 mb 0.00 in0.0 mm 0.00 in0.0 mm 0.00 in0.0 mm
12:26 AM 47.5°F8.6°C 44.1°F6.7°C 92% 2.0 mph NE3.2 kmh NE 7.0 mph11.3 kmh 29.88 in1011.9 mb 0.00 in0.0 mm 0.00 in0.0 mm 0.00 in0.0 mm
12:28 AM 47.4°F8.6°C 44.0°F6.7°C 92% 3.0 mph ENE4.8 kmh ENE 7.0 mph11.3 kmh 29.88 in1011.9 mb 0.00 in0.0 mm 0.00 in0.0 mm 0.00 in0.0 mm
12:30 AM 47.3°F8.5°C 43.9°F6.6°C 92% 4.0 mph NE6.4 kmh NE 7.0 mph11.3 kmh 29.88 in1011.9 mb 0.00 in0.0 mm 0.00 in0.0 mm 0.00 in0.0 mm
12:32 AM 47.2°F8.4°C 43.8°F6.6°C 92% 4.0 mph ENE6.4 kmh ENE 7.0 mph11.3 kmh 29.88 in1011.9 mb 0.00 in0.0 mm 0.00 in0.0 mm 0.00 in0.0 mm
12:34 AM 47.1°F8.4°C 43.7°F6.5°C 92% 5.0 mph NNE8.0 kmh NNE 7.0 mph11.3 kmh 29.88 in1011.9 mb 0.00 in0.0 mm 0.00 in0.0 mm 0.00 in0.0 mm
12:36 AM 47.0°F8.3°C 43.6°F6.4°C 92% 5.0 mph NE8.0 kmh NE 7.0 mph11.3 kmh 29.88 in1011.9 mb 0.00 in0.0 mm 0.00 in0.0 mm 0.00 in0.0 mm
12:38 AM 46.9°F8.3°C 43.5°F6.4°C 92% 4.0 mph NE6.4 kmh NE 7.0 mph11.3 kmh 29.88 in1011.9 mb 0.00 in0.0 mm 0.00 in0.0 mm 0.00 in0.0 mm
12:40 AM 46.8°F8.2°C 43.7°F6.5°C 93% 7.0 mph NE11.3 kmh NE 7.0 mph11.3 kmh 29.88 in1011.9 mb 0.00 in0.0 mm 0.00 in0.0 mm 0.00 in0.0 mm
12:42 AM 46.7°F8.2°C 43.3°F6.3°C 92% 7.0 mph NE11.3 kmh NE 9.0 mph14.5 kmh 29.88 in1011.9 mb 0.00 in0.0 mm 0.00 in0.0 mm 0.00 in0.0 mm
12:44 AM 46.5°F8.1°C 43.4°F6.3°C 93% 4.0 mph ENE6.4 kmh ENE 9.0 mph14.5 kmh 29.88 in1011.9 mb 0.00 in0.0 mm 0.00 in0.0 mm 0.00 in0.0 mm
12:46 AM 46.4°F8.0°C 43.3°F6.3°C 93% 4.0 mph NNE6.4 kmh NNE 11.0 mph17.7 kmh 29.87 in1011.5 mb 0.00 in0.0 mm 0.00 in0.0 mm 0.00 in0.0 mm
12:48 AM 46.3°F7.9°C 43.2°F6.2°C 93% 4.0 mph NE6.4 kmh NE 11.0 mph17.7 kmh 29.87 in1011.5 mb 0.00 in0.0 mm 0.00 in0.0 mm 0.00 in0.0 mm
12:50 AM 46.2°F7.9°C 43.1°F6.2°C 93% 5.0 mph NE8.0 kmh NE 11.0 mph17.7 kmh 29.87 in1011.5 mb 0.00 in0.0 mm 0.00 in0.0 mm 0.00 in0.0 mm
12:52 AM 46.2°F7.9°C 43.1°F6.2°C 93% 4.0 mph NE6.4 kmh NE 11.0 mph17.7 kmh 29.87 in1011.5 mb 0.00 in0.0 mm 0.00 in0.0 mm 0.00 in0.0 mm
12:54 AM 46.1°F7.8°C 43.0°F6.1°C 93% 4.0 mph NE6.4 kmh NE 11.0 mph17.7 kmh 29.87 in1011.5 mb 0.00 in0.0 mm 0.00 in0.0 mm 0.00 in0.0 mm
12:56 AM 46.0°F7.8°C 42.9°F6.1°C 93% 3.0 mph ENE4.8 kmh ENE 11.0 mph17.7 kmh 29.87 in1011.5 mb 0.00 in0.0 mm 0.00 in0.0 mm 0.00 in0.0 mm
12:58 AM 46.0°F7.8°C 42.9°F6.1°C 93% 2.0 mph E3.2 kmh E 11.0 mph17.7 kmh 29.88 in1011.9 mb 0.00 in0.0 mm 0.00 in0.0 mm 0.00 in0.0 mm
01:00 AM 46.0°F7.8°C 42.9°F6.1°C 93% 3.0 mph ENE4.8 kmh ENE 11.0 mph17.7 kmh 29.88 in1011.9 mb 0.00 in0.0 mm 0.00 in0.0 mm 0.02 in0.5 mm
01:02 AM 45.9°F7.7°C 42.8°F6.0°C 93% 2.0 mph NE3.2 kmh NE 11.0 mph17.7 kmh 29.88 in1011.9 mb 0.00 in0.0 mm 0.00 in0.0 mm 0.02 in0.5 mm
01:04 AM 45.9°F7.7°C 42.8°F6.0°C 93% 1.0 mph ENE1.6 kmh ENE 11.0 mph17.7 kmh 29.88 in1011.9 mb 0.00 in0.0 mm 0.00 in0.0 mm 0.02 in0.5 mm
01:06 AM 45.8°F7.7°C 42.7°F5.9°C 93% 4.0 mph NE6.4 kmh NE 7.0 mph11.3 kmh 29.88 in1011.9 mb 0.00 in0.0 mm 0.00 in0.0 mm 0.02 in0.5 mm
01:08 AM 45.8°F7.7°C 42.7°F5.9°C 93% 3.0 mph NE4.8 kmh NE 7.0 mph11.3 kmh 29.88 in1011.9 mb 0.00 in0.0 mm 0.00 in0.0 mm 0.03 in0.8 mm
01:10 AM 45.7°F7.6°C 42.6°F5.9°C 93% 3.0 mph ENE4.8 kmh ENE 7.0 mph11.3 kmh 29.88 in1011.9 mb 0.00 in0.0 mm 0.00 in0.0 mm 0.03 in0.8 mm
01:12 AM 45.7°F7.6°C 42.6°F5.9°C 93% 1.0 mph NNE1.6 kmh NNE 7.0 mph11.3 kmh 29.88 in1011.9 mb 0.00 in0.0 mm 0.00 in0.0 mm 0.03 in0.8 mm
01:14 AM 45.7°F7.6°C 42.9°F6.1°C 94% 3.0 mph NE4.8 kmh NE 7.0 mph11.3 kmh 29.88 in1011.9 mb 0.00 in0.0 mm 0.00 in0.0 mm 0.03 in0.8 mm
01:16 AM 45.7°F7.6°C 42.9°F6.1°C 94% 2.0 mph NE3.2 kmh NE 7.0 mph11.3 kmh 29.88 in1011.9 mb 0.00 in0.0 mm 0.00 in0.0 mm 0.03 in0.8 mm
01:18 AM 45.7°F7.6°C 42.9°F6.1°C 94% 2.0 mph NE3.2 kmh NE 7.0 mph11.3 kmh 29.87 in1011.5 mb 0.00 in0.0 mm 0.00 in0.0 mm 0.03 in0.8 mm
01:20 AM 45.7°F7.6°C 42.9°F6.1°C 94% 3.0 mph E4.8 kmh E 7.0 mph11.3 kmh 29.87 in1011.5 mb 0.04 in1.0 mm 1.20 in30.5 mm 0.03 in0.8 mm
01:22 AM 45.7°F7.6°C 42.9°F6.1°C 94% 1.0 mph ESE1.6 kmh ESE 7.0 mph11.3 kmh 29.88 in1011.9 mb 0.04 in1.0 mm 0.00 in0.0 mm 0.04 in1.0 mm
01:24 AM 45.7°F7.6°C 42.9°F6.1°C 94% 2.0 mph NE3.2 kmh NE 7.0 mph11.3 kmh 29.88 in1011.9 mb 0.04 in1.0 mm 0.00 in0.0 mm 0.04 in1.0 mm
01:26 AM 45.7°F7.6°C 42.9°F6.1°C 94% 2.0 mph NE3.2 kmh NE 7.0 mph11.3 kmh 29.88 in1011.9 mb 0.04 in1.0 mm 0.00 in0.0 mm 0.04 in1.0 mm
01:28 AM 45.6°F7.6°C 42.8°F6.0°C 94% 1.0 mph NE1.6 kmh NE 5.0 mph8.0 kmh 29.87 in1011.5 mb 0.04 in1.0 mm 0.00 in0.0 mm 0.04 in1.0 mm
01:30 AM 45.5°F7.5°C 42.7°F5.9°C 94% 1.0 mph E1.6 kmh E 6.0 mph9.7 kmh 29.87 in1011.5 mb 0.04 in1.0 mm 0.00 in0.0 mm 0.04 in1.0 mm
01:32 AM 45.5°F7.5°C 42.7°F5.9°C 94% 2.0 mph NNE3.2 kmh NNE 6.0 mph9.7 kmh 29.87 in1011.5 mb 0.04 in1.0 mm 0.00 in0.0 mm 0.04 in1.0 mm
01:34 AM 45.4°F7.4°C 42.6°F5.9°C 94% 4.0 mph NE6.4 kmh NE 6.0 mph9.7 kmh 29.87 in1011.5 mb 0.04 in1.0 mm 0.00 in0.0 mm 0.04 in1.0 mm
01:36 AM 45.3°F7.4°C 42.5°F5.8°C 94% 2.0 mph NE3.2 kmh NE 6.0 mph9.7 kmh 29.87 in1011.5 mb 0.04 in1.0 mm 0.00 in0.0 mm 0.04 in1.0 mm
01:38 AM 45.2°F7.3°C 42.4°F5.8°C 94% 3.0 mph NE4.8 kmh NE 6.0 mph9.7 kmh 29.87 in1011.5 mb 0.00 in0.0 mm 0.00 in0.0 mm 0.04 in1.0 mm
01:40 AM 45.2°F7.3°C 42.4°F5.8°C 94% 3.0 mph NE4.8 kmh NE 7.0 mph11.3 kmh 29.87 in1011.5 mb 0.00 in0.0 mm 0.00 in0.0 mm 0.04 in1.0 mm
01:42 AM 45.1°F7.3°C 42.3°F5.7°C 94% 4.0 mph N6.4 kmh N 7.0 mph11.3 kmh 29.87 in1011.5 mb 0.00 in0.0 mm 0.00 in0.0 mm 0.04 in1.0 mm
01:44 AM 45.0°F7.2°C 42.2°F5.7°C 94% 6.0 mph NNE9.7 kmh NNE 11.0 mph17.7 kmh 29.86 in1011.2 mb 0.00 in0.0 mm 0.00 in0.0 mm 0.04 in1.0 mm
01:46 AM 45.0°F7.2°C 42.2°F5.7°C 94% 6.0 mph N9.7 kmh N 11.0 mph17.7 kmh 29.86 in1011.2 mb 0.00 in0.0 mm 0.00 in0.0 mm 0.04 in1.0 mm
01:48 AM 45.0°F7.2°C 42.2°F5.7°C 94% 4.0 mph N6.4 kmh N 11.0 mph17.7 kmh 29.86 in1011.2 mb 0.00 in0.0 mm 0.00 in0.0 mm 0.04 in1.0 mm
01:50 AM 45.0°F7.2°C 42.2°F5.7°C 94% 6.0 mph NE9.7 kmh NE 11.0 mph17.7 kmh 29.86 in1011.2 mb 0.00 in0.0 mm 0.00 in0.0 mm 0.04 in1.0 mm
01:52 AM 45.0°F7.2°C 42.2°F5.7°C 94% 3.0 mph NE4.8 kmh NE 11.0 mph17.7 kmh 29.86 in1011.2 mb 0.00 in0.0 mm 0.00 in0.0 mm 0.04 in1.0 mm
01:54 AM 45.0°F7.2°C 42.2°F5.7°C 94% 2.0 mph ENE3.2 kmh ENE 11.0 mph17.7 kmh 29.86 in1011.2 mb 0.00 in0.0 mm 0.00 in0.0 mm 0.05 in1.3 mm
01:56 AM 45.0°F7.2°C 42.2°F5.7°C 94% 2.0 mph NNE3.2 kmh NNE 11.0 mph17.7 kmh 29.86 in1011.2 mb 0.00 in0.0 mm 0.00 in0.0 mm 0.05 in1.3 mm
01:58 AM 45.0°F7.2°C 42.2°F5.7°C 94% 2.0 mph NE3.2 kmh NE 11.0 mph17.7 kmh 29.86 in1011.2 mb 0.00 in0.0 mm 0.00 in0.0 mm 0.05 in1.3 mm
02:00 AM 45.0°F7.2°C 42.2°F5.7°C 94% 1.0 mph NE1.6 kmh NE 11.0 mph17.7 kmh 29.86 in1011.2 mb 0.08 in2.0 mm 0.08 in2.0 mm 0.05 in1.3 mm
02:02 AM 45.0°F7.2°C 42.2°F5.7°C 94% 2.0 mph NE3.2 kmh NE 11.0 mph17.7 kmh 29.86 in1011.2 mb 0.08 in2.0 mm 0.00 in0.0 mm 0.06 in1.5 mm
02:04 AM 45.0°F7.2°C 42.2°F5.7°C 94% 3.0 mph NE4.8 kmh NE 5.0 mph8.0 kmh 29.85 in1010.8 mb 0.08 in2.0 mm 0.00 in0.0 mm 0.06 in1.5 mm
02:06 AM 45.0°F7.2°C 42.2°F5.7°C 94% 5.0 mph NE8.0 kmh NE 6.0 mph9.7 kmh 29.85 in1010.8 mb 0.08 in2.0 mm 0.00 in0.0 mm 0.06 in1.5 mm
02:08 AM 45.0°F7.2°C 42.2°F5.7°C 94% 3.0 mph NE4.8 kmh NE 8.0 mph12.9 kmh 29.84 in1010.5 mb 0.07 in1.8 mm 0.00 in0.0 mm 0.06 in1.5 mm
02:10 AM 45.0°F7.2°C 42.2°F5.7°C 94% 8.0 mph ENE12.9 kmh ENE 8.0 mph12.9 kmh 29.84 in1010.5 mb 0.07 in1.8 mm 0.00 in0.0 mm 0.07 in1.8 mm
02:12 AM 45.0°F7.2°C 42.2°F5.7°C 94% 1.0 mph ENE1.6 kmh ENE 8.0 mph12.9 kmh 29.86 in1011.2 mb 0.07 in1.8 mm 0.00 in0.0 mm 0.07 in1.8 mm
02:14 AM 44.9°F7.2°C 42.1°F5.6°C 94% 1.0 mph S1.6 kmh S 8.0 mph12.9 kmh 29.88 in1011.9 mb 0.12 in3.0 mm 1.50 in38.1 mm 0.08 in2.0 mm
02:16 AM 44.9°F7.2°C 42.1°F5.6°C 94% 3.0 mph SE4.8 kmh SE 8.0 mph12.9 kmh 29.87 in1011.5 mb 0.12 in3.0 mm 0.00 in0.0 mm 0.08 in2.0 mm
02:18 AM 44.9°F7.2°C 42.1°F5.6°C 94% 1.0 mph ESE1.6 kmh ESE 8.0 mph12.9 kmh 29.87 in1011.5 mb 0.13 in3.3 mm 0.30 in7.6 mm 0.08 in2.0 mm
02:20 AM 44.9°F7.2°C 42.1°F5.6°C 94% 1.0 mph E1.6 kmh E 8.0 mph12.9 kmh 29.87 in1011.5 mb 0.13 in3.3 mm 0.00 in0.0 mm 0.09 in2.3 mm
02:22 AM 44.9°F7.2°C 42.1°F5.6°C 94% 3.0 mph S4.8 kmh S 8.0 mph12.9 kmh 29.87 in1011.5 mb 0.18 in4.6 mm 1.50 in38.1 mm 0.10 in2.5 mm
02:24 AM 44.9°F7.2°C 42.1°F5.6°C 94% 2.0 mph SE3.2 kmh SE 8.0 mph12.9 kmh 29.88 in1011.9 mb 0.18 in4.6 mm 0.00 in0.0 mm 0.10 in2.5 mm
02:26 AM 44.9°F7.2°C 42.1°F5.6°C 94% 1.0 mph SE1.6 kmh SE 8.0 mph12.9 kmh 29.87 in1011.5 mb 0.14 in3.6 mm 0.00 in0.0 mm 0.11 in2.8 mm
02:28 AM 44.9°F7.2°C 42.1°F5.6°C 94% Calm Calm 4.0 mph6.4 kmh 29.87 in1011.5 mb 0.23 in5.8 mm 2.70 in68.6 mm 0.11 in2.8 mm
02:30 AM 44.9°F7.2°C 42.4°F5.8°C 95% 2.0 mph SE3.2 kmh SE 4.0 mph6.4 kmh 29.87 in1011.5 mb 0.23 in5.8 mm 0.00 in0.0 mm 0.12 in3.0 mm
02:32 AM 44.9°F7.2°C 42.4°F5.8°C 95% 1.0 mph SE1.6 kmh SE 4.0 mph6.4 kmh 29.88 in1011.9 mb 0.15 in3.8 mm 0.00 in0.0 mm 0.12 in3.0 mm
02:34 AM 44.8°F7.1°C 42.3°F5.7°C 95% 3.0 mph S4.8 kmh S 4.0 mph6.4 kmh 29.88 in1011.9 mb 0.15 in3.8 mm 0.00 in0.0 mm 0.13 in3.3 mm
02:36 AM 44.8°F7.1°C 42.3°F5.7°C 95% Calm Calm 4.0 mph6.4 kmh 29.88 in1011.9 mb 0.20 in5.1 mm 1.50 in38.1 mm 0.14 in3.6 mm
02:38 AM 44.8°F7.1°C 42.3°F5.7°C 95% Calm Calm 4.0 mph6.4 kmh 29.87 in1011.5 mb 0.20 in5.1 mm 0.00 in0.0 mm 0.14 in3.6 mm
02:40 AM 44.8°F7.1°C 42.3°F5.7°C 95% Calm Calm 4.0 mph6.4 kmh 29.87 in1011.5 mb 0.12 in3.0 mm 0.00 in0.0 mm 0.14 in3.6 mm
02:42 AM 44.8°F7.1°C 42.3°F5.7°C 95% 3.0 mph NE4.8 kmh NE 4.0 mph6.4 kmh 29.87 in1011.5 mb 0.12 in3.0 mm 0.00 in0.0 mm 0.15 in3.8 mm
02:44 AM 44.7°F7.1°C 42.2°F5.7°C 95% 2.0 mph NE3.2 kmh NE 4.0 mph6.4 kmh 29.87 in1011.5 mb 0.20 in5.1 mm 2.40 in61.0 mm 0.16 in4.1 mm
02:46 AM 44.7°F7.1°C 42.2°F5.7°C 95% 2.0 mph NE3.2 kmh NE 5.0 mph8.0 kmh 29.87 in1011.5 mb 0.20 in5.1 mm 0.00 in0.0 mm 0.16 in4.1 mm
02:48 AM 44.7°F7.1°C 42.2°F5.7°C 95% 1.0 mph E1.6 kmh E 5.0 mph8.0 kmh 29.87 in1011.5 mb 0.12 in3.0 mm 0.00 in0.0 mm 0.16 in4.1 mm
02:50 AM 44.7°F7.1°C 42.2°F5.7°C 95% 1.0 mph SE1.6 kmh SE 5.0 mph8.0 kmh 29.87 in1011.5 mb 0.12 in3.0 mm 0.00 in0.0 mm 0.17 in4.3 mm
02:52 AM 44.8°F7.1°C 42.3°F5.7°C 95% 3.0 mph NE4.8 kmh NE 5.0 mph8.0 kmh 29.87 in1011.5 mb 0.28 in7.1 mm 4.80 in121.9 mm 0.18 in4.6 mm
02:54 AM 44.8°F7.1°C 42.3°F5.7°C 95% 3.0 mph NE4.8 kmh NE 5.0 mph8.0 kmh 29.87 in1011.5 mb 0.15 in3.8 mm 0.00 in0.0 mm 0.18 in4.6 mm
02:56 AM 44.8°F7.1°C 42.3°F5.7°C 95% 3.0 mph NE4.8 kmh NE 5.0 mph8.0 kmh 29.86 in1011.2 mb 0.34 in8.6 mm 5.70 in144.8 mm 0.19 in4.8 mm
02:58 AM 44.8°F7.1°C 42.3°F5.7°C 95% 3.0 mph NE4.8 kmh NE 5.0 mph8.0 kmh 29.85 in1010.8 mb 0.29 in7.4 mm 0.00 in0.0 mm 0.20 in5.1 mm
03:00 AM 44.8°F7.1°C 42.3°F5.7°C 95% 1.0 mph ENE1.6 kmh ENE 5.0 mph8.0 kmh 29.85 in1010.8 mb 0.15 in3.8 mm 0.00 in0.0 mm 0.20 in5.1 mm
03:02 AM 44.8°F7.1°C 42.3°F5.7°C 95% 2.0 mph ENE3.2 kmh ENE 7.0 mph11.3 kmh 29.85 in1010.8 mb 0.13 in3.3 mm 0.00 in0.0 mm 0.21 in5.3 mm
03:04 AM 44.8°F7.1°C 42.3°F5.7°C 95% 2.0 mph ENE3.2 kmh ENE 7.0 mph11.3 kmh 29.85 in1010.8 mb 0.13 in3.3 mm 0.00 in0.0 mm 0.21 in5.3 mm
03:06 AM 44.8°F7.1°C 42.3°F5.7°C 95% 2.0 mph NE3.2 kmh NE 7.0 mph11.3 kmh 29.85 in1010.8 mb 0.17 in4.3 mm 1.20 in30.5 mm 0.22 in5.6 mm
03:08 AM 44.8°F7.1°C 42.3°F5.7°C 95% 2.0 mph ENE3.2 kmh ENE 7.0 mph11.3 kmh 29.85 in1010.8 mb 0.16 in4.1 mm 0.00 in0.0 mm 0.22 in5.6 mm
03:10 AM 44.8°F7.1°C 42.3°F5.7°C 95% 2.0 mph ENE3.2 kmh ENE 7.0 mph11.3 kmh 29.85 in1010.8 mb 0.14 in3.6 mm 0.00 in0.0 mm 0.23 in5.8 mm
03:12 AM 44.8°F7.1°C 42.3°F5.7°C 95% 2.0 mph ESE3.2 kmh ESE 7.0 mph11.3 kmh 29.85 in1010.8 mb 0.14 in3.6 mm 0.00 in0.0 mm 0.23 in5.8 mm
03:14 AM 44.8°F7.1°C 42.3°F5.7°C 95% 3.0 mph NE4.8 kmh NE 7.0 mph11.3 kmh 29.85 in1010.8 mb 0.16 in4.1 mm 0.60 in15.2 mm 0.24 in6.1 mm
03:16 AM 44.8°F7.1°C 42.3°F5.7°C 95% 3.0 mph NE4.8 kmh NE 7.0 mph11.3 kmh 29.85 in1010.8 mb 0.16 in4.1 mm 0.00 in0.0 mm 0.24 in6.1 mm
03:18 AM 44.8°F7.1°C 42.3°F5.7°C 95% 2.0 mph NE3.2 kmh NE 7.0 mph11.3 kmh 29.85 in1010.8 mb 0.14 in3.6 mm 0.00 in0.0 mm 0.25 in6.4 mm
03:20 AM 44.8°F7.1°C 42.3°F5.7°C 95% 2.0 mph NE3.2 kmh NE 7.0 mph11.3 kmh 29.85 in1010.8 mb 0.14 in3.6 mm 0.00 in0.0 mm 0.25 in6.4 mm
03:22 AM 44.8°F7.1°C 42.3°F5.7°C 95% 1.0 mph ESE1.6 kmh ESE 6.0 mph9.7 kmh 29.85 in1010.8 mb 0.17 in4.3 mm 0.90 in22.9 mm 0.26 in6.6 mm
03:24 AM 44.7°F7.1°C 42.2°F5.7°C 95% 1.0 mph ESE1.6 kmh ESE 6.0 mph9.7 kmh 29.85 in1010.8 mb 0.59 in15.0 mm 12.60 in320.0 mm 0.28 in7.1 mm
03:26 AM 44.7°F7.1°C 42.2°F5.7°C 95% 2.0 mph ESE3.2 kmh ESE 6.0 mph9.7 kmh 29.85 in1010.8 mb 0.52 in13.2 mm 0.00 in0.0 mm 0.30 in7.6 mm
03:28 AM 44.7°F7.1°C 42.2°F5.7°C 95% 3.0 mph NE4.8 kmh NE 6.0 mph9.7 kmh 29.85 in1010.8 mb 0.30 in7.6 mm 0.00 in0.0 mm 0.31 in7.9 mm
03:30 AM 44.7°F7.1°C 42.2°F5.7°C 95% 1.0 mph ESE1.6 kmh ESE 6.0 mph9.7 kmh 29.85 in1010.8 mb 0.43 in10.9 mm 3.90 in99.1 mm 0.32 in8.1 mm
03:32 AM 44.7°F7.1°C 42.2°F5.7°C 95% 2.0 mph SE3.2 kmh SE 5.0 mph8.0 kmh 29.85 in1010.8 mb 0.47 in11.9 mm 1.20 in30.5 mm 0.33 in8.4 mm
03:34 AM 44.8°F7.1°C 42.3°F5.7°C 95% 4.0 mph E6.4 kmh E 5.0 mph8.0 kmh 29.85 in1010.8 mb 0.79 in20.1 mm 9.60 in243.8 mm 0.35 in8.9 mm
03:36 AM 44.8°F7.1°C 42.3°F5.7°C 95% 3.0 mph NE4.8 kmh NE 5.0 mph8.0 kmh 29.85 in1010.8 mb 0.38 in9.7 mm 0.00 in0.0 mm 0.37 in9.4 mm
03:38 AM 44.8°F7.1°C 42.3°F5.7°C 95% 2.0 mph E3.2 kmh E 5.0 mph8.0 kmh 29.85 in1010.8 mb 0.45 in11.4 mm 2.10 in53.3 mm 0.38 in9.7 mm
03:40 AM 44.8°F7.1°C 42.3°F5.7°C 95% 2.0 mph NE3.2 kmh NE 5.0 mph8.0 kmh 29.85 in1010.8 mb 0.32 in8.1 mm 0.00 in0.0 mm 0.39 in9.9 mm
03:42 AM 44.9°F7.2°C 42.4°F5.8°C 95% 2.0 mph ENE3.2 kmh ENE 4.0 mph6.4 kmh 29.84 in1010.5 mb 0.30 in7.6 mm 0.00 in0.0 mm 0.40 in10.2 mm
03:44 AM 44.9°F7.2°C 42.4°F5.8°C 95% 3.0 mph NE4.8 kmh NE 4.0 mph6.4 kmh 29.84 in1010.5 mb 0.37 in9.4 mm 2.10 in53.3 mm 0.41 in10.4 mm
03:46 AM 44.8°F7.1°C 42.3°F5.7°C 95% Calm Calm 4.0 mph6.4 kmh 29.85 in1010.8 mb 0.34 in8.6 mm 0.00 in0.0 mm 0.43 in10.9 mm
03:48 AM 44.9°F7.2°C 42.4°F5.8°C 95% 2.0 mph E3.2 kmh E 4.0 mph6.4 kmh 29.85 in1010.8 mb 0.46 in11.7 mm 3.60 in91.4 mm 0.44 in11.2 mm
03:50 AM 44.8°F7.1°C 42.3°F5.7°C 95% 3.0 mph NE4.8 kmh NE 4.0 mph6.4 kmh 29.84 in1010.5 mb 0.54 in13.7 mm 2.40 in61.0 mm 0.45 in11.4 mm
03:52 AM 44.9°F7.2°C 42.4°F5.8°C 95% 1.0 mph SE1.6 kmh SE 4.0 mph6.4 kmh 29.84 in1010.5 mb 0.40 in10.2 mm 0.00 in0.0 mm 0.47 in11.9 mm
03:54 AM 44.9°F7.2°C 42.4°F5.8°C 95% 2.0 mph ENE3.2 kmh ENE 4.0 mph6.4 kmh 29.85 in1010.8 mb 0.36 in9.1 mm 0.00 in0.0 mm 0.48 in12.2 mm
03:56 AM 44.9°F7.2°C 42.4°F5.8°C 95% 3.0 mph NE4.8 kmh NE 4.0 mph6.4 kmh 29.84 in1010.5 mb 0.28 in7.1 mm 0.00 in0.0 mm 0.49 in12.4 mm
03:58 AM 44.9°F7.2°C 42.4°F5.8°C 95% 2.0 mph NE3.2 kmh NE 4.0 mph6.4 kmh 29.84 in1010.5 mb 0.33 in8.4 mm 1.50 in38.1 mm 0.50 in12.7 mm
04:00 AM 44.9°F7.2°C 42.4°F5.8°C 95% 4.0 mph NE6.4 kmh NE 4.0 mph6.4 kmh 29.84 in1010.5 mb 0.22 in5.6 mm 0.00 in0.0 mm 0.51 in13.0 mm
04:02 AM 44.9°F7.2°C 42.4°F5.8°C 95% 3.0 mph E4.8 kmh E 6.0 mph9.7 kmh 29.84 in1010.5 mb 0.20 in5.1 mm 0.00 in0.0 mm 0.51 in13.0 mm
04:04 AM 44.9°F7.2°C 42.4°F5.8°C 95% 3.0 mph E4.8 kmh E 6.0 mph9.7 kmh 29.84 in1010.5 mb 0.20 in5.1 mm 0.00 in0.0 mm 0.52 in13.2 mm
04:06 AM 44.9°F7.2°C 42.4°F5.8°C 95% 2.0 mph SSE3.2 kmh SSE 6.0 mph9.7 kmh 29.84 in1010.5 mb 0.14 in3.6 mm 0.00 in0.0 mm 0.52 in13.2 mm
04:08 AM 44.9°F7.2°C 42.4°F5.8°C 95% Calm Calm 6.0 mph9.7 kmh 29.84 in1010.5 mb 0.11 in2.8 mm 0.00 in0.0 mm 0.53 in13.5 mm
04:10 AM 44.9°F7.2°C 42.4°F5.8°C 95% 2.0 mph NNE3.2 kmh NNE 6.0 mph9.7 kmh 29.84 in1010.5 mb 0.35 in8.9 mm 7.20 in182.9 mm 0.54 in13.7 mm
04:12 AM 44.9°F7.2°C 42.4°F5.8°C 95% 3.0 mph N4.8 kmh N 6.0 mph9.7 kmh 29.84 in1010.5 mb 0.20 in5.1 mm 0.00 in0.0 mm 0.55 in14.0 mm
04:14 AM 44.9°F7.2°C 42.4°F5.8°C 95% 2.0 mph NNE3.2 kmh NNE 6.0 mph9.7 kmh 29.84 in1010.5 mb 0.20 in5.1 mm 0.00 in0.0 mm 0.55 in14.0 mm
04:16 AM 44.9°F7.2°C 42.4°F5.8°C 95% 2.0 mph NNE3.2 kmh NNE 6.0 mph9.7 kmh 29.85 in1010.8 mb 0.15 in3.8 mm 0.00 in0.0 mm 0.56 in14.2 mm
04:18 AM 44.9°F7.2°C 42.4°F5.8°C 95% Calm Calm 6.0 mph9.7 kmh 29.86 in1011.2 mb 0.29 in7.4 mm 4.20 in106.7 mm 0.57 in14.5 mm
04:20 AM 44.9°F7.2°C 42.4°F5.8°C 95% 2.0 mph N3.2 kmh N 6.0 mph9.7 kmh 29.85 in1010.8 mb 0.84 in21.3 mm 16.50 in419.1 mm 0.59 in15.0 mm
04:22 AM 44.9°F7.2°C 42.4°F5.8°C 95% 2.0 mph NE3.2 kmh NE 5.0 mph8.0 kmh 29.85 in1010.8 mb 0.73 in18.5 mm 0.00 in0.0 mm 0.62 in15.7 mm
04:24 AM 44.9°F7.2°C 42.4°F5.8°C 95% 1.0 mph ENE1.6 kmh ENE 5.0 mph8.0 kmh 29.85 in1010.8 mb 0.60 in15.2 mm 0.00 in0.0 mm 0.64 in16.3 mm
04:26 AM 44.9°F7.2°C 42.4°F5.8°C 95% 1.0 mph NE1.6 kmh NE 5.0 mph8.0 kmh 29.85 in1010.8 mb 0.33 in8.4 mm 0.00 in0.0 mm 0.65 in16.5 mm
04:28 AM 44.9°F7.2°C 42.4°F5.8°C 95% 3.0 mph NE4.8 kmh NE 5.0 mph8.0 kmh 29.84 in1010.5 mb 0.35 in8.9 mm 0.60 in15.2 mm 0.66 in16.8 mm
04:30 AM 44.9°F7.2°C 42.4°F5.8°C 95% 2.0 mph NE3.2 kmh NE 5.0 mph8.0 kmh 29.84 in1010.5 mb 0.18 in4.6 mm 0.00 in0.0 mm 0.66 in16.8 mm
04:32 AM 44.9°F7.2°C 42.4°F5.8°C 95% 2.0 mph NNE3.2 kmh NNE 4.0 mph6.4 kmh 29.84 in1010.5 mb 0.18 in4.6 mm 0.00 in0.0 mm 0.67 in17.0 mm
04:34 AM 44.9°F7.2°C 42.4°F5.8°C 95% 3.0 mph NE4.8 kmh NE 4.0 mph6.4 kmh 29.84 in1010.5 mb 0.25 in6.4 mm 2.10 in53.3 mm 0.68 in17.3 mm
04:36 AM 44.9°F7.2°C 42.4°F5.8°C 95% 1.0 mph NE1.6 kmh NE 4.0 mph6.4 kmh 29.84 in1010.5 mb 0.17 in4.3 mm 0.00 in0.0 mm 0.68 in17.3 mm
04:38 AM 45.0°F7.2°C 42.5°F5.8°C 95% 2.0 mph NE3.2 kmh NE 4.0 mph6.4 kmh 29.84 in1010.5 mb 0.14 in3.6 mm 0.00 in0.0 mm 0.69 in17.5 mm
04:40 AM 44.9°F7.2°C 42.4°F5.8°C 95% 2.0 mph NE3.2 kmh NE 4.0 mph6.4 kmh 29.84 in1010.5 mb 0.20 in5.1 mm 1.80 in45.7 mm 0.69 in17.5 mm
04:42 AM 45.0°F7.2°C 42.5°F5.8°C 95% 1.0 mph ESE1.6 kmh ESE 4.0 mph6.4 kmh 29.84 in1010.5 mb 0.20 in5.1 mm 0.00 in0.0 mm 0.70 in17.8 mm
04:44 AM 45.0°F7.2°C 42.5°F5.8°C 95% 3.0 mph ENE4.8 kmh ENE 4.0 mph6.4 kmh 29.84 in1010.5 mb 0.60 in15.2 mm 12.00 in304.8 mm 0.72 in18.3 mm
04:46 AM 45.0°F7.2°C 42.8°F6.0°C 96% 2.0 mph ENE3.2 kmh ENE 4.0 mph6.4 kmh 29.84 in1010.5 mb 0.24 in6.1 mm 0.00 in0.0 mm 0.72 in18.3 mm
04:48 AM 45.1°F7.3°C 42.9°F6.1°C 96% 2.0 mph ENE3.2 kmh ENE 4.0 mph6.4 kmh 29.84 in1010.5 mb 0.20 in5.1 mm 0.00 in0.0 mm 0.73 in18.5 mm
04:50 AM 45.1°F7.3°C 42.9°F6.1°C 96% 2.0 mph NE3.2 kmh NE 4.0 mph6.4 kmh 29.84 in1010.5 mb 0.16 in4.1 mm 0.00 in0.0 mm 0.73 in18.5 mm
04:52 AM 45.1°F7.3°C 42.9°F6.1°C 96% 3.0 mph NE4.8 kmh NE 5.0 mph8.0 kmh 29.84 in1010.5 mb 0.11 in2.8 mm 0.00 in0.0 mm 0.73 in18.5 mm
04:54 AM 45.1°F7.3°C 42.9°F6.1°C 96% 1.0 mph NE1.6 kmh NE 5.0 mph8.0 kmh 29.84 in1010.5 mb 0.11 in2.8 mm 0.00 in0.0 mm 0.74 in18.8 mm
04:56 AM 45.1°F7.3°C 42.9°F6.1°C 96% 3.0 mph NE4.8 kmh NE 5.0 mph8.0 kmh 29.83 in1010.2 mb 0.15 in3.8 mm 1.20 in30.5 mm 0.74 in18.8 mm
04:58 AM 45.1°F7.3°C 42.9°F6.1°C 96% 2.0 mph NE3.2 kmh NE 5.0 mph8.0 kmh 29.83 in1010.2 mb 0.15 in3.8 mm 0.00 in0.0 mm 0.75 in19.1 mm
05:00 AM 45.1°F7.3°C 42.9°F6.1°C 96% 2.0 mph E3.2 kmh E 5.0 mph8.0 kmh 29.84 in1010.5 mb 0.25 in6.4 mm 0.10 in2.5 mm 0.76 in19.3 mm
05:02 AM 45.1°F7.3°C 42.9°F6.1°C 96% 1.0 mph NE1.6 kmh NE 5.0 mph8.0 kmh 29.84 in1010.5 mb 0.16 in4.1 mm 0.00 in0.0 mm 0.76 in19.3 mm
05:04 AM 45.1°F7.3°C 42.9°F6.1°C 96% 1.0 mph NE1.6 kmh NE 5.0 mph8.0 kmh 29.84 in1010.5 mb 0.43 in10.9 mm 8.10 in205.7 mm 0.77 in19.6 mm
05:06 AM 45.1°F7.3°C 42.9°F6.1°C 96% 2.0 mph ENE3.2 kmh ENE 5.0 mph8.0 kmh 29.84 in1010.5 mb 0.37 in9.4 mm 0.00 in0.0 mm 0.79 in20.1 mm
05:08 AM 45.2°F7.3°C 43.0°F6.1°C 96% 3.0 mph NE4.8 kmh NE 5.0 mph8.0 kmh 29.84 in1010.5 mb 0.42 in10.7 mm 1.50 in38.1 mm 0.80 in20.3 mm
05:10 AM 45.2°F7.3°C 43.0°F6.1°C 96% Calm Calm 5.0 mph8.0 kmh 29.83 in1010.2 mb 0.36 in9.1 mm 0.00 in0.0 mm 0.81 in20.6 mm
05:12 AM 45.2°F7.3°C 43.0°F6.1°C 96% 1.0 mph E1.6 kmh E 4.0 mph6.4 kmh 29.83 in1010.2 mb 0.23 in5.8 mm 0.00 in0.0 mm 0.82 in20.8 mm
05:14 AM 45.2°F7.3°C 43.0°F6.1°C 96% 2.0 mph NE3.2 kmh NE 4.0 mph6.4 kmh 29.83 in1010.2 mb 0.20 in5.1 mm 0.00 in0.0 mm 0.82 in20.8 mm
05:16 AM 45.2°F7.3°C 42.7°F5.9°C 95% 3.0 mph NE4.8 kmh NE 4.0 mph6.4 kmh 29.83 in1010.2 mb 0.14 in3.6 mm 0.00 in0.0 mm 0.83 in21.1 mm
05:18 AM 45.3°F7.4°C 43.1°F6.2°C 96% 1.0 mph E1.6 kmh E 4.0 mph6.4 kmh 29.84 in1010.5 mb 0.14 in3.6 mm 0.00 in0.0 mm 0.83 in21.1 mm
05:20 AM 45.3°F7.4°C 43.1°F6.2°C 96% 1.0 mph NE1.6 kmh NE 4.0 mph6.4 kmh 29.83 in1010.2 mb 0.14 in3.6 mm 0.00 in0.0 mm 0.84 in21.3 mm
05:22 AM 45.3°F7.4°C 43.1°F6.2°C 96% 3.0 mph NE4.8 kmh NE 4.0 mph6.4 kmh 29.82 in1009.8 mb 0.58 in14.7 mm 13.20 in335.3 mm 0.86 in21.8 mm
05:24 AM 45.3°F7.4°C 43.1°F6.2°C 96% 2.0 mph ENE3.2 kmh ENE 4.0 mph6.4 kmh 29.82 in1009.8 mb 0.24 in6.1 mm 0.00 in0.0 mm 0.86 in21.8 mm
05:26 AM 45.3°F7.4°C 43.1°F6.2°C 96% 1.0 mph ENE1.6 kmh ENE 4.0 mph6.4 kmh 29.83 in1010.2 mb 0.21 in5.3 mm 0.00 in0.0 mm 0.87 in22.1 mm
05:28 AM 45.3°F7.4°C 43.1°F6.2°C 96% 1.0 mph ENE1.6 kmh ENE 4.0 mph6.4 kmh 29.83 in1010.2 mb 0.21 in5.3 mm 0.00 in0.0 mm 0.88 in22.4 mm
05:30 AM 45.3°F7.4°C 43.1°F6.2°C 96% Calm Calm 4.0 mph6.4 kmh 29.83 in1010.2 mb 0.21 in5.3 mm 0.00 in0.0 mm 0.88 in22.4 mm
05:32 AM 45.4°F7.4°C 43.2°F6.2°C 96% 1.0 mph ENE1.6 kmh ENE 4.0 mph6.4 kmh 29.83 in1010.2 mb 0.13 in3.3 mm 0.00 in0.0 mm 0.88 in22.4 mm
05:34 AM 45.4°F7.4°C 43.2°F6.2°C 96% 2.0 mph ENE3.2 kmh ENE 4.0 mph6.4 kmh 29.83 in1010.2 mb 0.11 in2.8 mm 0.00 in0.0 mm 0.89 in22.6 mm
05:36 AM 45.4°F7.4°C 43.2°F6.2°C 96% 1.0 mph ENE1.6 kmh ENE 4.0 mph6.4 kmh 29.82 in1009.8 mb 0.11 in2.8 mm 0.00 in0.0 mm 0.89 in22.6 mm
05:38 AM 45.4°F7.4°C 43.2°F6.2°C 96% 1.0 mph ENE1.6 kmh ENE 4.0 mph6.4 kmh 29.82 in1009.8 mb 0.17 in4.3 mm 1.80 in45.7 mm 0.90 in22.9 mm
05:40 AM 45.4°F7.4°C 43.2°F6.2°C 96% 2.0 mph ESE3.2 kmh ESE 4.0 mph6.4 kmh 29.83 in1010.2 mb 0.15 in3.8 mm 0.00 in0.0 mm 0.90 in22.9 mm
05:42 AM 45.4°F7.4°C 43.2°F6.2°C 96% 1.0 mph SE1.6 kmh SE 4.0 mph6.4 kmh 29.82 in1009.8 mb 0.14 in3.6 mm 0.00 in0.0 mm 0.91 in23.1 mm
05:44 AM 45.5°F7.5°C 43.3°F6.3°C 96% 2.0 mph E3.2 kmh E 4.0 mph6.4 kmh 29.82 in1009.8 mb 0.14 in3.6 mm 0.00 in0.0 mm 0.91 in23.1 mm
05:46 AM 45.5°F7.5°C 43.3°F6.3°C 96% 2.0 mph ENE3.2 kmh ENE 4.0 mph6.4 kmh 29.82 in1009.8 mb 0.16 in4.1 mm 0.60 in15.2 mm 0.92 in23.4 mm
05:48 AM 45.5°F7.5°C 43.3°F6.3°C 96% 4.0 mph NE6.4 kmh NE 5.0 mph8.0 kmh 29.82 in1009.8 mb 0.16 in4.1 mm 0.00 in0.0 mm 0.92 in23.4 mm
05:50 AM 45.5°F7.5°C 43.3°F6.3°C 96% 2.0 mph ENE3.2 kmh ENE 5.0 mph8.0 kmh 29.82 in1009.8 mb 0.10 in2.5 mm 0.00 in0.0 mm 0.92 in23.4 mm
05:52 AM 45.5°F7.5°C 43.3°F6.3°C 96% 2.0 mph ENE3.2 kmh ENE 5.0 mph8.0 kmh 29.82 in1009.8 mb 0.09 in2.3 mm 0.00 in0.0 mm 0.93 in23.6 mm
05:54 AM 45.5°F7.5°C 43.3°F6.3°C 96% 2.0 mph E3.2 kmh E 5.0 mph8.0 kmh 29.82 in1009.8 mb 0.09 in2.3 mm 0.00 in0.0 mm 0.93 in23.6 mm
05:56 AM 45.4°F7.4°C 43.2°F6.2°C 96% 2.0 mph ESE3.2 kmh ESE 5.0 mph8.0 kmh 29.82 in1009.8 mb 0.09 in2.3 mm 0.00 in0.0 mm 0.93 in23.6 mm
05:58 AM 45.5°F7.5°C 43.3°F6.3°C 96% 2.0 mph E3.2 kmh E 5.0 mph8.0 kmh 29.82 in1009.8 mb 0.09 in2.3 mm 0.00 in0.0 mm 0.94 in23.9 mm
06:00 AM 45.5°F7.5°C 43.3°F6.3°C 96% 1.0 mph ENE1.6 kmh ENE 5.0 mph8.0 kmh 29.81 in1009.5 mb 0.09 in2.3 mm 0.00 in0.0 mm 0.94 in23.9 mm
06:02 AM 45.5°F7.5°C 43.3°F6.3°C 96% 3.0 mph NE4.8 kmh NE 5.0 mph8.0 kmh 29.81 in1009.5 mb 0.09 in2.3 mm 0.00 in0.0 mm 0.94 in23.9 mm
06:04 AM 45.5°F7.5°C 43.3°F6.3°C 96% 4.0 mph ESE6.4 kmh ESE 7.0 mph11.3 kmh 29.80 in1009.1 mb 0.09 in2.3 mm 0.00 in0.0 mm 0.94 in23.9 mm
06:06 AM 45.5°F7.5°C 43.3°F6.3°C 96% Calm Calm 7.0 mph11.3 kmh 29.80 in1009.1 mb 0.07 in1.8 mm 0.00 in0.0 mm 0.94 in23.9 mm
06:08 AM 45.5°F7.5°C 43.3°F6.3°C 96% 1.0 mph ESE1.6 kmh ESE 7.0 mph11.3 kmh 29.81 in1009.5 mb 0.07 in1.8 mm 0.00 in0.0 mm 0.95 in24.1 mm
06:10 AM 45.5°F7.5°C 43.3°F6.3°C 96% 1.0 mph E1.6 kmh E 7.0 mph11.3 kmh 29.81 in1009.5 mb 0.07 in1.8 mm 0.00 in0.0 mm 0.95 in24.1 mm
06:12 AM 45.5°F7.5°C 43.3°F6.3°C 96% 1.0 mph NE1.6 kmh NE 7.0 mph11.3 kmh 29.81 in1009.5 mb 0.07 in1.8 mm 0.00 in0.0 mm 0.95 in24.1 mm
06:14 AM 45.6°F7.6°C 43.4°F6.3°C 96% 4.0 mph NE6.4 kmh NE 7.0 mph11.3 kmh 29.80 in1009.1 mb 0.07 in1.8 mm 0.00 in0.0 mm 0.95 in24.1 mm
06:16 AM 45.6°F7.6°C 43.4°F6.3°C 96% 4.0 mph NE6.4 kmh NE 7.0 mph11.3 kmh 29.80 in1009.1 mb 0.06 in1.5 mm 0.00 in0.0 mm 0.95 in24.1 mm
06:18 AM 45.6°F7.6°C 43.4°F6.3°C 96% 2.0 mph NE3.2 kmh NE 7.0 mph11.3 kmh 29.80 in1009.1 mb 0.05 in1.3 mm 0.00 in0.0 mm 0.95 in24.1 mm
06:20 AM 45.6°F7.6°C 43.4°F6.3°C 96% 2.0 mph ENE3.2 kmh ENE 7.0 mph11.3 kmh 29.80 in1009.1 mb 0.05 in1.3 mm 0.00 in0.0 mm 0.96 in24.4 mm
06:22 AM 45.6°F7.6°C 43.4°F6.3°C 96% 1.0 mph ENE1.6 kmh ENE 7.0 mph11.3 kmh 29.80 in1009.1 mb 0.05 in1.3 mm 0.00 in0.0 mm 0.96 in24.4 mm
06:24 AM 45.6°F7.6°C 43.4°F6.3°C 96% 2.0 mph ENE3.2 kmh ENE 6.0 mph9.7 kmh 29.80 in1009.1 mb 0.05 in1.3 mm 0.00 in0.0 mm 0.96 in24.4 mm
06:26 AM 45.6°F7.6°C 43.4°F6.3°C 96% 2.0 mph ENE3.2 kmh ENE 6.0 mph9.7 kmh 29.80 in1009.1 mb 0.05 in1.3 mm 0.00 in0.0 mm 0.96 in24.4 mm
06:28 AM 45.6°F7.6°C 43.4°F6.3°C 96% 3.0 mph ESE4.8 kmh ESE 6.0 mph9.7 kmh 29.80 in1009.1 mb 0.05 in1.3 mm 0.00 in0.0 mm 0.96 in24.4 mm
06:30 AM 45.6°F7.6°C 43.4°F6.3°C 96% 3.0 mph N4.8 kmh N 6.0 mph9.7 kmh 29.79 in1008.8 mb 0.05 in1.3 mm 0.00 in0.0 mm 0.96 in24.4 mm
06:32 AM 45.6°F7.6°C 43.4°F6.3°C 96% 1.0 mph E1.6 kmh E 6.0 mph9.7 kmh 29.79 in1008.8 mb 0.05 in1.3 mm 0.00 in0.0 mm 0.96 in24.4 mm
06:34 AM 45.6°F7.6°C 43.4°F6.3°C 96% 2.0 mph E3.2 kmh E 5.0 mph8.0 kmh 29.80 in1009.1 mb 0.04 in1.0 mm 0.00 in0.0 mm 0.97 in24.6 mm
06:36 AM 45.6°F7.6°C 43.4°F6.3°C 96% Calm Calm 5.0 mph8.0 kmh 29.80 in1009.1 mb 0.04 in1.0 mm 0.00 in0.0 mm 0.97 in24.6 mm
06:38 AM 45.7°F7.6°C 43.5°F6.4°C 96% 1.0 mph ENE1.6 kmh ENE 5.0 mph8.0 kmh 29.80 in1009.1 mb 0.04 in1.0 mm 0.00 in0.0 mm 0.97 in24.6 mm
06:40 AM 45.7°F7.6°C 43.5°F6.4°C 96% 2.0 mph ENE3.2 kmh ENE 5.0 mph8.0 kmh 29.80 in1009.1 mb 0.11 in2.8 mm 2.10 in53.3 mm 0.98 in24.9 mm
06:42 AM 45.7°F7.6°C 43.5°F6.4°C 96% 3.0 mph NE4.8 kmh NE 5.0 mph8.0 kmh 29.79 in1008.8 mb 0.11 in2.8 mm 0.00 in0.0 mm 0.98 in24.9 mm
06:44 AM 45.7°F7.6°C 43.5°F6.4°C 96% Calm Calm 5.0 mph8.0 kmh 29.79 in1008.8 mb 0.15 in3.8 mm 1.20 in30.5 mm 0.99 in25.1 mm
06:46 AM 45.7°F7.6°C 43.5°F6.4°C 96% 1.0 mph E1.6 kmh E 5.0 mph8.0 kmh 29.79 in1008.8 mb 0.19 in4.8 mm 1.20 in30.5 mm 0.99 in25.1 mm
06:48 AM 45.7°F7.6°C 43.5°F6.4°C 96% Calm Calm 5.0 mph8.0 kmh 29.80 in1009.1 mb 0.19 in4.8 mm 0.00 in0.0 mm 1.00 in25.4 mm
06:50 AM 45.7°F7.6°C 43.5°F6.4°C 96% 2.0 mph NE3.2 kmh NE 5.0 mph8.0 kmh 29.79 in1008.8 mb 0.17 in4.3 mm 0.00 in0.0 mm 1.01 in25.7 mm
06:52 AM 45.7°F7.6°C 43.5°F6.4°C 96% 1.0 mph NE1.6 kmh NE 5.0 mph8.0 kmh 29.79 in1008.8 mb 0.17 in4.3 mm 0.00 in0.0 mm 1.01 in25.7 mm
06:54 AM 45.7°F7.6°C 43.5°F6.4°C 96% 1.0 mph NE1.6 kmh NE 5.0 mph8.0 kmh 29.80 in1009.1 mb 0.19 in4.8 mm 0.60 in15.2 mm 1.02 in25.9 mm
06:56 AM 45.7°F7.6°C 43.5°F6.4°C 96% 1.0 mph E1.6 kmh E 5.0 mph8.0 kmh 29.80 in1009.1 mb 0.16 in4.1 mm 0.00 in0.0 mm 1.02 in25.9 mm
06:58 AM 45.7°F7.6°C 43.5°F6.4°C 96% 2.0 mph ENE3.2 kmh ENE 5.0 mph8.0 kmh 29.79 in1008.8 mb 0.14 in3.6 mm 0.00 in0.0 mm 1.03 in26.2 mm
07:00 AM 45.7°F7.6°C 43.5°F6.4°C 96% 1.0 mph ENE1.6 kmh ENE 5.0 mph8.0 kmh 29.79 in1008.8 mb 0.26 in6.6 mm 0.12 in3.0 mm 1.04 in26.4 mm
07:02 AM 45.7°F7.6°C 43.5°F6.4°C 96% 2.0 mph ENE3.2 kmh ENE 3.0 mph4.8 kmh 29.79 in1008.8 mb 0.18 in4.6 mm 0.00 in0.0 mm 1.04 in26.4 mm
07:04 AM 45.7°F7.6°C 43.5°F6.4°C 96% 2.0 mph ENE3.2 kmh ENE 3.0 mph4.8 kmh 29.78 in1008.5 mb 0.11 in2.8 mm 0.00 in0.0 mm 1.04 in26.4 mm
07:06 AM 45.7°F7.6°C 43.5°F6.4°C 96% 2.0 mph ENE3.2 kmh ENE 3.0 mph4.8 kmh 29.78 in1008.5 mb 0.11 in2.8 mm 0.00 in0.0 mm 1.05 in26.7 mm
07:08 AM 45.7°F7.6°C 43.5°F6.4°C 96% 3.0 mph NE4.8 kmh NE 5.0 mph8.0 kmh 29.79 in1008.8 mb 0.11 in2.8 mm 0.00 in0.0 mm 1.05 in26.7 mm
07:10 AM 45.8°F7.7°C 43.6°F6.4°C 96% 2.0 mph ENE3.2 kmh ENE 5.0 mph8.0 kmh 29.79 in1008.8 mb 0.11 in2.8 mm 0.00 in0.0 mm 1.05 in26.7 mm
07:12 AM 45.7°F7.6°C 43.5°F6.4°C 96% 1.0 mph ENE1.6 kmh ENE 5.0 mph8.0 kmh 29.79 in1008.8 mb 0.11 in2.8 mm 0.00 in0.0 mm 1.06 in26.9 mm
07:14 AM 45.8°F7.7°C 43.6°F6.4°C 96% 1.0 mph ENE1.6 kmh ENE 5.0 mph8.0 kmh 29.79 in1008.8 mb 0.11 in2.8 mm 0.00 in0.0 mm 1.06 in26.9 mm
07:16 AM 45.8°F7.7°C 43.6°F6.4°C 96% Calm Calm 5.0 mph8.0 kmh 29.79 in1008.8 mb 0.09 in2.3 mm 0.00 in0.0 mm 1.06 in26.9 mm
07:18 AM 45.8°F7.7°C 43.6°F6.4°C 96% 3.0 mph E4.8 kmh E 5.0 mph8.0 kmh 29.78 in1008.5 mb 0.09 in2.3 mm 0.00 in0.0 mm 1.07 in27.2 mm
07:20 AM 45.8°F7.7°C 43.6°F6.4°C 96% Calm Calm 5.0 mph8.0 kmh 29.79 in1008.8 mb 0.22 in5.6 mm 3.90 in99.1 mm 1.08 in27.4 mm
07:22 AM 45.8°F7.7°C 43.6°F6.4°C 96% Calm Calm 5.0 mph8.0 kmh 29.79 in1008.8 mb 0.19 in4.8 mm 0.00 in0.0 mm 1.08 in27.4 mm
07:24 AM 45.8°F7.7°C 43.6°F6.4°C 96% 1.0 mph ENE1.6 kmh ENE 5.0 mph8.0 kmh 29.79 in1008.8 mb 0.12 in3.0 mm 0.00 in0.0 mm 1.08 in27.4 mm
07:26 AM 45.8°F7.7°C 43.6°F6.4°C 96% 1.0 mph ENE1.6 kmh ENE 5.0 mph8.0 kmh 29.78 in1008.5 mb 0.10 in2.5 mm 0.00 in0.0 mm 1.09 in27.7 mm
07:28 AM 45.9°F7.7°C 43.7°F6.5°C 96% 3.0 mph NE4.8 kmh NE 5.0 mph8.0 kmh 29.78 in1008.5 mb 0.10 in2.5 mm 0.00 in0.0 mm 1.09 in27.7 mm
07:30 AM 45.9°F7.7°C 43.7°F6.5°C 96% 1.0 mph E1.6 kmh E 8.0 mph12.9 kmh 29.78 in1008.5 mb 0.10 in2.5 mm 0.00 in0.0 mm 1.09 in27.7 mm
07:32 AM 45.9°F7.7°C 43.7°F6.5°C 96% 1.0 mph ENE1.6 kmh ENE 8.0 mph12.9 kmh 29.79 in1008.8 mb 0.09 in2.3 mm 0.00 in0.0 mm 1.09 in27.7 mm
07:34 AM 45.9°F7.7°C 43.7°F6.5°C 96% 3.0 mph E4.8 kmh E 8.0 mph12.9 kmh 29.78 in1008.5 mb 0.07 in1.8 mm 0.00 in0.0 mm 1.09 in27.7 mm
07:36 AM 45.9°F7.7°C 43.7°F6.5°C 96% 2.0 mph NE3.2 kmh NE 8.0 mph12.9 kmh 29.78 in1008.5 mb 0.05 in1.3 mm 0.00 in0.0 mm 1.09 in27.7 mm
07:38 AM 46.0°F7.8°C 43.8°F6.6°C 96% 1.0 mph SE1.6 kmh SE 8.0 mph12.9 kmh 29.78 in1008.5 mb 0.05 in1.3 mm 0.00 in0.0 mm 1.10 in27.9 mm
07:40 AM 46.0°F7.8°C 43.8°F6.6°C 96% 3.0 mph ESE4.8 kmh ESE 8.0 mph12.9 kmh 29.79 in1008.8 mb 0.05 in1.3 mm 0.00 in0.0 mm 1.10 in27.9 mm
07:42 AM 46.0°F7.8°C 43.8°F6.6°C 96% 2.0 mph ENE3.2 kmh ENE 8.0 mph12.9 kmh 29.78 in1008.5 mb 0.05 in1.3 mm 0.00 in0.0 mm 1.10 in27.9 mm
07:44 AM 46.0°F7.8°C 43.8°F6.6°C 96% 1.0 mph E1.6 kmh E 8.0 mph12.9 kmh 29.78 in1008.5 mb 0.05 in1.3 mm 0.00 in0.0 mm 1.10 in27.9 mm
07:46 AM 46.0°F7.8°C 43.8°F6.6°C 96% 2.0 mph NE3.2 kmh NE 8.0 mph12.9 kmh 29.78 in1008.5 mb 0.05 in1.3 mm 0.00 in0.0 mm 1.10 in27.9 mm
07:48 AM 46.0°F7.8°C 43.8°F6.6°C 96% 2.0 mph E3.2 kmh E 8.0 mph12.9 kmh 29.78 in1008.5 mb 0.05 in1.3 mm 0.00 in0.0 mm 1.10 in27.9 mm
07:50 AM 46.1°F7.8°C 43.9°F6.6°C 96% 2.0 mph ESE3.2 kmh ESE 8.0 mph12.9 kmh 29.78 in1008.5 mb 0.05 in1.3 mm 0.00 in0.0 mm 1.11 in28.2 mm
07:52 AM 46.1°F7.8°C 43.9°F6.6°C 96% 2.0 mph NE3.2 kmh NE 8.0 mph12.9 kmh 29.78 in1008.5 mb 0.05 in1.3 mm 0.00 in0.0 mm 1.11 in28.2 mm
07:54 AM 46.1°F7.8°C 43.9°F6.6°C 96% 3.0 mph SE4.8 kmh SE 8.0 mph12.9 kmh 29.78 in1008.5 mb 0.05 in1.3 mm 0.00 in0.0 mm 1.11 in28.2 mm
07:56 AM 46.1°F7.8°C 43.9°F6.6°C 96% 1.0 mph E1.6 kmh E 8.0 mph12.9 kmh 29.78 in1008.5 mb 0.05 in1.3 mm 0.00 in0.0 mm 1.11 in28.2 mm
07:58 AM 46.1°F7.8°C 43.9°F6.6°C 96% 2.0 mph E3.2 kmh E 8.0 mph12.9 kmh 29.79 in1008.8 mb 0.05 in1.3 mm 0.00 in0.0 mm 1.11 in28.2 mm
08:00 AM 46.1°F7.8°C 43.9°F6.6°C 96% 1.0 mph NE1.6 kmh NE 7.0 mph11.3 kmh 29.78 in1008.5 mb 0.07 in1.8 mm 0.02 in0.5 mm 1.12 in28.4 mm
08:02 AM 46.1°F7.8°C 43.9°F6.6°C 96% 1.0 mph ENE1.6 kmh ENE 7.0 mph11.3 kmh 29.78 in1008.5 mb 0.07 in1.8 mm 0.00 in0.0 mm 1.12 in28.4 mm
08:04 AM 46.1°F7.8°C 43.9°F6.6°C 96% 2.0 mph E3.2 kmh E 7.0 mph11.3 kmh 29.78 in1008.5 mb 0.07 in1.8 mm 0.00 in0.0 mm 1.12 in28.4 mm
08:06 AM 46.2°F7.9°C 44.0°F6.7°C 96% 2.0 mph E3.2 kmh E 7.0 mph11.3 kmh 29.78 in1008.5 mb 0.10 in2.5 mm 0.90 in22.9 mm 1.13 in28.7 mm
08:08 AM 46.2°F7.9°C 44.0°F6.7°C 96% 1.0 mph E1.6 kmh E 7.0 mph11.3 kmh 29.77 in1008.1 mb 0.10 in2.5 mm 0.00 in0.0 mm 1.13 in28.7 mm
08:10 AM 46.2°F7.9°C 44.0°F6.7°C 96% 1.0 mph ENE1.6 kmh ENE 4.0 mph6.4 kmh 29.77 in1008.1 mb 0.12 in3.0 mm 0.60 in15.2 mm 1.13 in28.7 mm
08:12 AM 46.2°F7.9°C 44.0°F6.7°C 96% 2.0 mph ENE3.2 kmh ENE 4.0 mph6.4 kmh 29.77 in1008.1 mb 0.12 in3.0 mm 0.00 in0.0 mm 1.14 in29.0 mm
08:14 AM 46.3°F7.9°C 44.1°F6.7°C 96% 1.0 mph NE1.6 kmh NE 4.0 mph6.4 kmh 29.77 in1008.1 mb 0.12 in3.0 mm 0.00 in0.0 mm 1.14 in29.0 mm
08:16 AM 46.3°F7.9°C 44.1°F6.7°C 96% 4.0 mph NE6.4 kmh NE 4.0 mph6.4 kmh 29.77 in1008.1 mb 0.10 in2.5 mm 0.00 in0.0 mm 1.14 in29.0 mm
08:18 AM 46.3°F7.9°C 44.1°F6.7°C 96% 3.0 mph NE4.8 kmh NE 8.0 mph12.9 kmh 29.77 in1008.1 mb 0.08 in2.0 mm 0.00 in0.0 mm 1.14 in29.0 mm
08:20 AM 46.3°F7.9°C 44.1°F6.7°C 96% 1.0 mph NE1.6 kmh NE 8.0 mph12.9 kmh 29.77 in1008.1 mb 0.08 in2.0 mm 0.00 in0.0 mm 1.15 in29.2 mm
08:22 AM 46.3°F7.9°C 44.1°F6.7°C 96% 2.0 mph NE3.2 kmh NE 8.0 mph12.9 kmh 29.77 in1008.1 mb 0.08 in2.0 mm 0.00 in0.0 mm 1.15 in29.2 mm
08:24 AM 46.4°F8.0°C 44.2°F6.8°C 96% 3.0 mph NE4.8 kmh NE 8.0 mph12.9 kmh 29.77 in1008.1 mb 0.08 in2.0 mm 0.00 in0.0 mm 1.15 in29.2 mm
08:26 AM 46.4°F8.0°C 44.2°F6.8°C 96% 1.0 mph ENE1.6 kmh ENE 8.0 mph12.9 kmh 29.77 in1008.1 mb 0.07 in1.8 mm 0.00 in0.0 mm 1.15 in29.2 mm
08:28 AM 46.4°F8.0°C 44.2°F6.8°C 96% 1.0 mph E1.6 kmh E 8.0 mph12.9 kmh 29.77 in1008.1 mb 0.07 in1.8 mm 0.00 in0.0 mm 1.16 in29.5 mm
08:30 AM 46.5°F8.1°C 44.3°F6.8°C 96% 1.0 mph NE1.6 kmh NE 8.0 mph12.9 kmh 29.77 in1008.1 mb 0.07 in1.8 mm 0.00 in0.0 mm 1.16 in29.5 mm
08:32 AM 46.5°F8.1°C 44.3°F6.8°C 96% 2.0 mph 3.2 kmh 8.0 mph12.9 kmh 29.77 in1008.1 mb 0.07 in1.8 mm 0.00 in0.0 mm 1.16 in29.5 mm
08:34 AM 46.5°F8.1°C 44.3°F6.8°C 96% 1.0 mph NE1.6 kmh NE 8.0 mph12.9 kmh 29.77 in1008.1 mb 0.10 in2.5 mm 0.90 in22.9 mm 1.17 in29.7 mm
08:36 AM 46.5°F8.1°C 44.3°F6.8°C 96% 3.0 mph N4.8 kmh N 8.0 mph12.9 kmh 29.77 in1008.1 mb 0.10 in2.5 mm 0.00 in0.0 mm 1.17 in29.7 mm
08:38 AM 46.5°F8.1°C 44.3°F6.8°C 96% 2.0 mph NE3.2 kmh NE 4.0 mph6.4 kmh 29.76 in1007.8 mb 0.10 in2.5 mm 0.00 in0.0 mm 1.17 in29.7 mm
08:40 AM 46.6°F8.1°C 44.4°F6.9°C 96% 3.0 mph ESE4.8 kmh ESE 5.0 mph8.0 kmh 29.76 in1007.8 mb 0.08 in2.0 mm 0.00 in0.0 mm 1.17 in29.7 mm
08:42 AM 46.6°F8.1°C 44.4°F6.9°C 96% 3.0 mph ESE4.8 kmh ESE 5.0 mph8.0 kmh 29.76 in1007.8 mb 0.06 in1.5 mm 0.00 in0.0 mm 1.17 in29.7 mm
08:44 AM 46.6°F8.1°C 44.4°F6.9°C 96% 1.0 mph NE1.6 kmh NE 5.0 mph8.0 kmh 29.76 in1007.8 mb 0.06 in1.5 mm 0.00 in0.0 mm 1.18 in30.0 mm
08:46 AM 46.6°F8.1°C 44.4°F6.9°C 96% 1.0 mph ENE1.6 kmh ENE 5.0 mph8.0 kmh 29.77 in1008.1 mb 0.06 in1.5 mm 0.00 in0.0 mm 1.18 in30.0 mm
08:48 AM 46.6°F8.1°C 44.4°F6.9°C 96% 3.0 mph NNE4.8 kmh NNE 5.0 mph8.0 kmh 29.76 in1007.8 mb 0.06 in1.5 mm 0.00 in0.0 mm 1.18 in30.0 mm
08:50 AM 46.7°F8.2°C 44.5°F6.9°C 96% 2.0 mph E3.2 kmh E 5.0 mph8.0 kmh 29.76 in1007.8 mb 0.06 in1.5 mm 0.00 in0.0 mm 1.18 in30.0 mm
08:52 AM 46.7°F8.2°C 44.5°F6.9°C 96% 4.0 mph ESE6.4 kmh ESE 5.0 mph8.0 kmh 29.77 in1008.1 mb 0.06 in1.5 mm 0.00 in0.0 mm 1.18 in30.0 mm
08:54 AM 46.7°F8.2°C 44.5°F6.9°C 96% 2.0 mph NE3.2 kmh NE 5.0 mph8.0 kmh 29.76 in1007.8 mb 0.06 in1.5 mm 0.00 in0.0 mm 1.19 in30.2 mm
08:56 AM 46.8°F8.2°C 44.6°F7.0°C 96% 4.0 mph NE6.4 kmh NE 5.0 mph8.0 kmh 29.76 in1007.8 mb 0.06 in1.5 mm 0.00 in0.0 mm 1.19 in30.2 mm
08:58 AM 46.8°F8.2°C 44.6°F7.0°C 96% 1.0 mph NE1.6 kmh NE 5.0 mph8.0 kmh 29.76 in1007.8 mb 0.06 in1.5 mm 0.00 in0.0 mm 1.19 in30.2 mm
09:00 AM 46.8°F8.2°C 44.6°F7.0°C 96% 1.0 mph E1.6 kmh E 4.0 mph6.4 kmh 29.76 in1007.8 mb 0.06 in1.5 mm 0.00 in0.0 mm 1.19 in30.2 mm
09:02 AM 46.8°F8.2°C 44.6°F7.0°C 96% 3.0 mph ENE4.8 kmh ENE 4.0 mph6.4 kmh 29.76 in1007.8 mb 0.06 in1.5 mm 0.00 in0.0 mm 1.19 in30.2 mm
09:04 AM 46.9°F8.3°C 44.7°F7.1°C 96% 6.0 mph NE9.7 kmh NE 7.0 mph11.3 kmh 29.76 in1007.8 mb 0.05 in1.3 mm 0.00 in0.0 mm 1.19 in30.2 mm
09:06 AM 46.9°F8.3°C 44.7°F7.1°C 96% 1.0 mph E1.6 kmh E 7.0 mph11.3 kmh 29.75 in1007.5 mb 0.05 in1.3 mm 0.00 in0.0 mm 1.20 in30.5 mm
09:08 AM 46.9°F8.3°C 44.7°F7.1°C 96% Calm Calm 7.0 mph11.3 kmh 29.75 in1007.5 mb 0.05 in1.3 mm 0.00 in0.0 mm 1.20 in30.5 mm
09:10 AM 47.0°F8.3°C 44.8°F7.1°C 96% Calm Calm 7.0 mph11.3 kmh 29.76 in1007.8 mb 0.05 in1.3 mm 0.00 in0.0 mm 1.20 in30.5 mm
09:12 AM 47.0°F8.3°C 44.8°F7.1°C 96% Calm Calm 7.0 mph11.3 kmh 29.76 in1007.8 mb 0.05 in1.3 mm 0.00 in0.0 mm 1.20 in30.5 mm
09:14 AM 47.0°F8.3°C 44.8°F7.1°C 96% Calm Calm 7.0 mph11.3 kmh 29.76 in1007.8 mb 0.05 in1.3 mm 0.00 in0.0 mm 1.20 in30.5 mm
09:16 AM 47.1°F8.4°C 44.9°F7.2°C 96% 2.0 mph E3.2 kmh E 7.0 mph11.3 kmh 29.76 in1007.8 mb 0.05 in1.3 mm 0.00 in0.0 mm 1.20 in30.5 mm
09:18 AM 47.1°F8.4°C 44.9°F7.2°C 96% 4.0 mph NE6.4 kmh NE 7.0 mph11.3 kmh 29.75 in1007.5 mb 0.04 in1.0 mm 0.00 in0.0 mm 1.20 in30.5 mm
09:20 AM 47.1°F8.4°C 44.9°F7.2°C 96% Calm Calm 7.0 mph11.3 kmh 29.75 in1007.5 mb 0.04 in1.0 mm 0.00 in0.0 mm 1.20 in30.5 mm
09:22 AM 47.2°F8.4°C 45.0°F7.2°C 96% Calm Calm 7.0 mph11.3 kmh 29.76 in1007.8 mb 0.00 in0.0 mm 0.00 in0.0 mm 1.20 in30.5 mm
09:24 AM 47.2°F8.4°C 45.0°F7.2°C 96% 2.0 mph ENE3.2 kmh ENE 7.0 mph11.3 kmh 29.75 in1007.5 mb 0.00 in0.0 mm 0.00 in0.0 mm 1.20 in30.5 mm
09:26 AM 47.2°F8.4°C 45.0°F7.2°C 96% 1.0 mph ENE1.6 kmh ENE 7.0 mph11.3 kmh 29.75 in1007.5 mb 0.00 in0.0 mm 0.00 in0.0 mm 1.20 in30.5 mm
09:28 AM 47.3°F8.5°C 45.1°F7.3°C 96% 2.0 mph NE3.2 kmh NE 7.0 mph11.3 kmh 29.75 in1007.5 mb 0.00 in0.0 mm 0.00 in0.0 mm 1.20 in30.5 mm
09:30 AM 47.3°F8.5°C 45.1°F7.3°C 96% 2.0 mph NNE3.2 kmh NNE 7.0 mph11.3 kmh 29.75 in1007.5 mb 0.00 in0.0 mm 0.00 in0.0 mm 1.20 in30.5 mm
09:32 AM 47.4°F8.6°C 45.2°F7.3°C 96% 2.0 mph E3.2 kmh E 7.0 mph11.3 kmh 29.75 in1007.5 mb 0.00 in0.0 mm 0.00 in0.0 mm 1.20 in30.5 mm
09:34 AM 47.4°F8.6°C 45.2°F7.3°C 96% 1.0 mph NE1.6 kmh NE 7.0 mph11.3 kmh 29.75 in1007.5 mb 0.00 in0.0 mm 0.00 in0.0 mm 1.20 in30.5 mm
09:36 AM 47.5°F8.6°C 45.3°F7.4°C 96% 1.0 mph ENE1.6 kmh ENE 5.0 mph8.0 kmh 29.75 in1007.5 mb 0.00 in0.0 mm 0.00 in0.0 mm 1.20 in30.5 mm
09:38 AM 47.5°F8.6°C 45.3°F7.4°C 96% 2.0 mph NE3.2 kmh NE 5.0 mph8.0 kmh 29.75 in1007.5 mb 0.00 in0.0 mm 0.00 in0.0 mm 1.21 in30.7 mm
09:40 AM 47.6°F8.7°C 45.4°F7.4°C 96% 1.0 mph E1.6 kmh E 5.0 mph8.0 kmh 29.74 in1007.1 mb 0.00 in0.0 mm 0.00 in0.0 mm 1.21 in30.7 mm
09:42 AM 47.6°F8.7°C 45.4°F7.4°C 96% 1.0 mph E1.6 kmh E 5.0 mph8.0 kmh 29.74 in1007.1 mb 0.00 in0.0 mm 0.00 in0.0 mm 1.21 in30.7 mm
09:44 AM 47.7°F8.7°C 45.5°F7.5°C 96% 1.0 mph ENE1.6 kmh ENE 5.0 mph8.0 kmh 29.74 in1007.1 mb 0.00 in0.0 mm 0.00 in0.0 mm 1.21 in30.7 mm
09:46 AM 47.8°F8.8°C 45.6°F7.6°C 96% 2.0 mph ESE3.2 kmh ESE 4.0 mph6.4 kmh 29.74 in1007.1 mb 0.00 in0.0 mm 0.00 in0.0 mm 1.21 in30.7 mm
09:48 AM 47.9°F8.8°C 45.7°F7.6°C 96% 2.0 mph ENE3.2 kmh ENE 4.0 mph6.4 kmh 29.74 in1007.1 mb 0.00 in0.0 mm 0.00 in0.0 mm 1.21 in30.7 mm
09:50 AM 47.8°F8.8°C 45.6°F7.6°C 96% 1.0 mph ENE1.6 kmh ENE 4.0 mph6.4 kmh 29.74 in1007.1 mb 0.00 in0.0 mm 0.00 in0.0 mm 1.21 in30.7 mm
09:52 AM 47.9°F8.8°C 45.7°F7.6°C 96% 1.0 mph E1.6 kmh E 4.0 mph6.4 kmh 29.74 in1007.1 mb 0.00 in0.0 mm 0.00 in0.0 mm 1.21 in30.7 mm
09:54 AM 47.9°F8.8°C 45.7°F7.6°C 96% 1.0 mph E1.6 kmh E 4.0 mph6.4 kmh 29.74 in1007.1 mb 0.00 in0.0 mm 0.00 in0.0 mm 1.21 in30.7 mm
09:56 AM 47.9°F8.8°C 45.7°F7.6°C 96% 1.0 mph E1.6 kmh E 4.0 mph6.4 kmh 29.74 in1007.1 mb 0.00 in0.0 mm 0.00 in0.0 mm 1.21 in30.7 mm
09:58 AM 47.9°F8.8°C 45.7°F7.6°C 96% 1.0 mph NE1.6 kmh NE 4.0 mph6.4 kmh 29.73 in1006.8 mb 0.00 in0.0 mm 0.00 in0.0 mm 1.21 in30.7 mm
10:00 AM 47.9°F8.8°C 45.7°F7.6°C 96% 3.0 mph ESE4.8 kmh ESE 4.0 mph6.4 kmh 29.73 in1006.8 mb 0.00 in0.0 mm 0.00 in0.0 mm 1.21 in30.7 mm
10:02 AM 48.0°F8.9°C 45.8°F7.7°C 96% 3.0 mph ENE4.8 kmh ENE 4.0 mph6.4 kmh 29.73 in1006.8 mb 0.00 in0.0 mm 0.00 in0.0 mm 1.21 in30.7 mm
10:04 AM 48.0°F8.9°C 45.8°F7.7°C 96% Calm Calm 4.0 mph6.4 kmh 29.73 in1006.8 mb 0.00 in0.0 mm 0.00 in0.0 mm 1.21 in30.7 mm
10:06 AM 48.0°F8.9°C 45.8°F7.7°C 96% 1.0 mph NE1.6 kmh NE 4.0 mph6.4 kmh 29.73 in1006.8 mb 0.00 in0.0 mm 0.00 in0.0 mm 1.21 in30.7 mm
10:08 AM 48.1°F8.9°C 45.9°F7.7°C 96% 1.0 mph NE1.6 kmh NE 4.0 mph6.4 kmh 29.73 in1006.8 mb 0.00 in0.0 mm 0.00 in0.0 mm 1.21 in30.7 mm
10:10 AM 48.1°F8.9°C 45.9°F7.7°C 96% 1.0 mph NE1.6 kmh NE 4.0 mph6.4 kmh 29.73 in1006.8 mb 0.00 in0.0 mm 0.00 in0.0 mm 1.21 in30.7 mm
10:12 AM 48.1°F8.9°C 45.9°F7.7°C 96% 2.0 mph NE3.2 kmh NE 6.0 mph9.7 kmh 29.73 in1006.8 mb 0.00 in0.0 mm 0.00 in0.0 mm 1.21 in30.7 mm
10:14 AM 48.2°F9.0°C 46.0°F7.8°C 96% 1.0 mph NE1.6 kmh NE 6.0 mph9.7 kmh 29.73 in1006.8 mb 0.00 in0.0 mm 0.00 in0.0 mm 1.21 in30.7 mm
10:16 AM 48.2°F9.0°C 46.0°F7.8°C 96% 3.0 mph NE4.8 kmh NE 6.0 mph9.7 kmh 29.72 in1006.4 mb 0.00 in0.0 mm 0.00 in0.0 mm 1.21 in30.7 mm
10:18 AM 48.3°F9.1°C 46.1°F7.8°C 96% 1.0 mph E1.6 kmh E 6.0 mph9.7 kmh 29.72 in1006.4 mb 0.00 in0.0 mm 0.00 in0.0 mm 1.21 in30.7 mm
10:20 AM 48.3°F9.1°C 46.1°F7.8°C 96% 1.0 mph ENE1.6 kmh ENE 6.0 mph9.7 kmh 29.72 in1006.4 mb 0.00 in0.0 mm 0.00 in0.0 mm 1.21 in30.7 mm
10:22 AM 48.3°F9.1°C 46.1°F7.8°C 96% 1.0 mph ENE1.6 kmh ENE 6.0 mph9.7 kmh 29.72 in1006.4 mb 0.00 in0.0 mm 0.00 in0.0 mm 1.21 in30.7 mm
10:24 AM 48.4°F9.1°C 46.2°F7.9°C 96% 2.0 mph ENE3.2 kmh ENE 6.0 mph9.7 kmh 29.71 in1006.1 mb 0.00 in0.0 mm 0.00 in0.0 mm 1.21 in30.7 mm
10:26 AM 48.4°F9.1°C 46.2°F7.9°C 96% 2.0 mph NNE3.2 kmh NNE 6.0 mph9.7 kmh 29.71 in1006.1 mb 0.00 in0.0 mm 0.00 in0.0 mm 1.21 in30.7 mm
10:28 AM 48.5°F9.2°C 46.3°F7.9°C 96% 2.0 mph ENE3.2 kmh ENE 6.0 mph9.7 kmh 29.71 in1006.1 mb 0.00 in0.0 mm 0.00 in0.0 mm 1.21 in30.7 mm
10:30 AM 48.5°F9.2°C 46.3°F7.9°C 96% 1.0 mph ENE1.6 kmh ENE 6.0 mph9.7 kmh 29.71 in1006.1 mb 0.00 in0.0 mm 0.00 in0.0 mm 1.21 in30.7 mm
10:32 AM 48.6°F9.2°C 46.4°F8.0°C 96% 3.0 mph NNE4.8 kmh NNE 4.0 mph6.4 kmh 29.71 in1006.1 mb 0.00 in0.0 mm 0.00 in0.0 mm 1.21 in30.7 mm
10:34 AM 48.6°F9.2°C 46.4°F8.0°C 96% 1.0 mph E1.6 kmh E 6.0 mph9.7 kmh 29.71 in1006.1 mb 0.00 in0.0 mm 0.00 in0.0 mm 1.21 in30.7 mm
10:36 AM 48.7°F9.3°C 46.5°F8.1°C 96% 1.0 mph NE1.6 kmh NE 6.0 mph9.7 kmh 29.71 in1006.1 mb 0.00 in0.0 mm 0.00 in0.0 mm 1.21 in30.7 mm
10:38 AM 48.7°F9.3°C 46.5°F8.1°C 96% 1.0 mph NNE1.6 kmh NNE 6.0 mph9.7 kmh 29.71 in1006.1 mb 0.00 in0.0 mm 0.00 in0.0 mm 1.21 in30.7 mm
10:40 AM 48.8°F9.3°C 46.6°F8.1°C 96% Calm Calm 6.0 mph9.7 kmh 29.71 in1006.1 mb 0.00 in0.0 mm 0.00 in0.0 mm 1.21 in30.7 mm
10:42 AM 48.8°F9.3°C 46.6°F8.1°C 96% 1.0 mph ESE1.6 kmh ESE 7.0 mph11.3 kmh 29.71 in1006.1 mb 0.00 in0.0 mm 0.00 in0.0 mm 1.21 in30.7 mm
10:44 AM 48.9°F9.4°C 46.7°F8.2°C 96% Calm Calm 7.0 mph11.3 kmh 29.71 in1006.1 mb 0.00 in0.0 mm 0.00 in0.0 mm 1.21 in30.7 mm
10:46 AM 49.0°F9.4°C 46.8°F8.2°C 96% Calm Calm 7.0 mph11.3 kmh 29.71 in1006.1 mb 0.00 in0.0 mm 0.00 in0.0 mm 1.21 in30.7 mm
10:48 AM 49.1°F9.5°C 46.9°F8.3°C 96% 2.0 mph NE3.2 kmh NE 7.0 mph11.3 kmh 29.70 in1005.8 mb 0.00 in0.0 mm 0.00 in0.0 mm 1.21 in30.7 mm
10:50 AM 49.2°F9.6°C 47.0°F8.3°C 96% 1.0 mph E1.6 kmh E 7.0 mph11.3 kmh 29.70 in1005.8 mb 0.00 in0.0 mm 0.00 in0.0 mm 1.21 in30.7 mm
10:52 AM 49.4°F9.7°C 47.2°F8.4°C 96% 1.0 mph E1.6 kmh E 7.0 mph11.3 kmh 29.70 in1005.8 mb 0.00 in0.0 mm 0.00 in0.0 mm 1.21 in30.7 mm
10:54 AM 49.4°F9.7°C 47.2°F8.4°C 96% Calm Calm 7.0 mph11.3 kmh 29.70 in1005.8 mb 0.00 in0.0 mm 0.00 in0.0 mm 1.21 in30.7 mm
10:56 AM 49.5°F9.7°C 47.6°F8.7°C 97% Calm Calm 7.0 mph11.3 kmh 29.70 in1005.8 mb 0.00 in0.0 mm 0.00 in0.0 mm 1.21 in30.7 mm
10:58 AM 49.5°F9.7°C 47.6°F8.7°C 97% 1.0 mph E1.6 kmh E 7.0 mph11.3 kmh 29.70 in1005.8 mb 0.00 in0.0 mm 0.00 in0.0 mm 1.21 in30.7 mm
11:00 AM 49.6°F9.8°C 47.4°F8.6°C 96% 3.0 mph E4.8 kmh E 7.0 mph11.3 kmh 29.70 in1005.8 mb 0.00 in0.0 mm 0.00 in0.0 mm 1.21 in30.7 mm
11:02 AM 49.6°F9.8°C 47.4°F8.6°C 96% 1.0 mph E1.6 kmh E 5.0 mph8.0 kmh 29.70 in1005.8 mb 0.00 in0.0 mm 0.00 in0.0 mm 1.21 in30.7 mm
11:04 AM 49.7°F9.8°C 47.5°F8.6°C 96% 1.0 mph NE1.6 kmh NE 5.0 mph8.0 kmh 29.70 in1005.8 mb 0.00 in0.0 mm 0.00 in0.0 mm 1.21 in30.7 mm
11:06 AM 49.8°F9.9°C 47.6°F8.7°C 96% 2.0 mph E3.2 kmh E 5.0 mph8.0 kmh 29.70 in1005.8 mb 0.00 in0.0 mm 0.00 in0.0 mm 1.21 in30.7 mm
11:08 AM 49.9°F9.9°C 47.7°F8.7°C 96% 4.0 mph ESE6.4 kmh ESE 5.0 mph8.0 kmh 29.70 in1005.8 mb 0.00 in0.0 mm 0.00 in0.0 mm 1.21 in30.7 mm
11:10 AM 49.9°F9.9°C 47.7°F8.7°C 96% 3.0 mph ENE4.8 kmh ENE 6.0 mph9.7 kmh 29.70 in1005.8 mb 0.00 in0.0 mm 0.00 in0.0 mm 1.21 in30.7 mm
11:12 AM 49.9°F9.9°C 47.7°F8.7°C 96% 2.0 mph ESE3.2 kmh ESE 7.0 mph11.3 kmh 29.69 in1005.4 mb 0.00 in0.0 mm 0.00 in0.0 mm 1.21 in30.7 mm
11:14 AM 50.0°F10.0°C 47.8°F8.8°C 96% 2.0 mph E3.2 kmh E 7.0 mph11.3 kmh 29.69 in1005.4 mb 0.00 in0.0 mm 0.00 in0.0 mm 1.21 in30.7 mm
11:16 AM 50.1°F10.1°C 47.9°F8.8°C 96% 1.0 mph E1.6 kmh E 7.0 mph11.3 kmh 29.69 in1005.4 mb 0.00 in0.0 mm 0.00 in0.0 mm 1.21 in30.7 mm
11:18 AM 50.1°F10.1°C 47.9°F8.8°C 96% 2.0 mph NE3.2 kmh NE 7.0 mph11.3 kmh 29.69 in1005.4 mb 0.00 in0.0 mm 0.00 in0.0 mm 1.21 in30.7 mm
11:20 AM 50.2°F10.1°C 48.0°F8.9°C 96% 4.0 mph S6.4 kmh S 7.0 mph11.3 kmh 29.69 in1005.4 mb 0.00 in0.0 mm 0.00 in0.0 mm 1.21 in30.7 mm
11:22 AM 50.3°F10.2°C 48.1°F8.9°C 96% 3.0 mph ENE4.8 kmh ENE 9.0 mph14.5 kmh 29.69 in1005.4 mb 0.00 in0.0 mm 0.00 in0.0 mm 1.21 in30.7 mm
11:24 AM 50.3°F10.2°C 48.1°F8.9°C 96% 1.0 mph E1.6 kmh E 9.0 mph14.5 kmh 29.69 in1005.4 mb 0.00 in0.0 mm 0.00 in0.0 mm 1.21 in30.7 mm
11:26 AM 50.3°F10.2°C 48.1°F8.9°C 96% 2.0 mph SSE3.2 kmh SSE 9.0 mph14.5 kmh 29.69 in1005.4 mb 0.00 in0.0 mm 0.00 in0.0 mm 1.21 in30.7 mm
11:28 AM 50.4°F10.2°C 48.2°F9.0°C 96% 2.0 mph SSE3.2 kmh SSE 9.0 mph14.5 kmh 29.70 in1005.8 mb 0.00 in0.0 mm 0.00 in0.0 mm 1.21 in30.7 mm
11:30 AM 50.4°F10.2°C 48.2°F9.0°C 96% 6.0 mph S9.7 kmh S 9.0 mph14.5 kmh 29.69 in1005.4 mb 0.00 in0.0 mm 0.00 in0.0 mm 1.21 in30.7 mm
11:32 AM 50.5°F10.3°C 48.3°F9.1°C 96% 4.0 mph SE6.4 kmh SE 9.0 mph14.5 kmh 29.69 in1005.4 mb 0.00 in0.0 mm 0.00 in0.0 mm 1.21 in30.7 mm
11:34 AM 50.6°F10.3°C 48.4°F9.1°C 96% Calm Calm 9.0 mph14.5 kmh 29.70 in1005.8 mb 0.00 in0.0 mm 0.00 in0.0 mm 1.21 in30.7 mm
11:36 AM 50.7°F10.4°C 48.7°F9.3°C 97% 3.0 mph SE4.8 kmh SE 9.0 mph14.5 kmh 29.69 in1005.4 mb 0.00 in0.0 mm 0.00 in0.0 mm 1.21 in30.7 mm
11:38 AM 50.7°F10.4°C 48.7°F9.3°C 97% 2.0 mph SE3.2 kmh SE 9.0 mph14.5 kmh 29.69 in1005.4 mb 0.00 in0.0 mm 0.00 in0.0 mm 1.21 in30.7 mm
11:40 AM 50.7°F10.4°C 48.5°F9.2°C 96% 3.0 mph E4.8 kmh E 9.0 mph14.5 kmh 29.69 in1005.4 mb 0.00 in0.0 mm 0.00 in0.0 mm 1.21 in30.7 mm
11:42 AM 50.7°F10.4°C 48.5°F9.2°C 96% 3.0 mph SSE4.8 kmh SSE 5.0 mph8.0 kmh 29.69 in1005.4 mb 0.00 in0.0 mm 0.00 in0.0 mm 1.21 in30.7 mm
11:44 AM 50.8°F10.4°C 48.6°F9.2°C 96% 4.0 mph NE6.4 kmh NE 6.0 mph9.7 kmh 29.68 in1005.1 mb 0.00 in0.0 mm 0.00 in0.0 mm 1.21 in30.7 mm
11:46 AM 50.9°F10.5°C 48.7°F9.3°C 96% Calm Calm 6.0 mph9.7 kmh 29.68 in1005.1 mb 0.00 in0.0 mm 0.00 in0.0 mm 1.21 in30.7 mm
11:48 AM 50.9°F10.5°C 48.7°F9.3°C 96% 3.0 mph ENE4.8 kmh ENE 6.0 mph9.7 kmh 29.68 in1005.1 mb 0.00 in0.0 mm 0.00 in0.0 mm 1.21 in30.7 mm
11:50 AM 51.0°F10.6°C 48.8°F9.3°C 96% Calm Calm 6.0 mph9.7 kmh 29.68 in1005.1 mb 0.00 in0.0 mm 0.00 in0.0 mm 1.21 in30.7 mm
11:52 AM 51.1°F10.6°C 48.9°F9.4°C 96% 1.0 mph SE1.6 kmh SE 6.0 mph9.7 kmh 29.68 in1005.1 mb 0.00 in0.0 mm 0.00 in0.0 mm 1.21 in30.7 mm
11:54 AM 51.3°F10.7°C 49.3°F9.6°C 97% Calm Calm 6.0 mph9.7 kmh 29.68 in1005.1 mb 0.00 in0.0 mm 0.00 in0.0 mm 1.21 in30.7 mm
11:56 AM 51.3°F10.7°C 49.3°F9.6°C 97% 2.0 mph ESE3.2 kmh ESE 6.0 mph9.7 kmh 29.68 in1005.1 mb 0.00 in0.0 mm 0.00 in0.0 mm 1.21 in30.7 mm
11:58 AM 51.4°F10.8°C 49.4°F9.7°C 97% 1.0 mph E1.6 kmh E 6.0 mph9.7 kmh 29.68 in1005.1 mb 0.00 in0.0 mm 0.00 in0.0 mm 1.21 in30.7 mm
12:00 PM 51.4°F10.8°C 49.2°F9.6°C 96% Calm Calm 6.0 mph9.7 kmh 29.68 in1005.1 mb 0.00 in0.0 mm 0.00 in0.0 mm 1.21 in30.7 mm
12:02 PM 51.5°F10.8°C 49.3°F9.6°C 96% 1.0 mph ENE1.6 kmh ENE 6.0 mph9.7 kmh 29.68 in1005.1 mb 0.00 in0.0 mm 0.00 in0.0 mm 1.21 in30.7 mm
12:04 PM 51.5°F10.8°C 49.3°F9.6°C 96% 1.0 mph SE1.6 kmh SE 3.0 mph4.8 kmh 29.68 in1005.1 mb 0.00 in0.0 mm 0.00 in0.0 mm 1.21 in30.7 mm
12:06 PM 51.5°F10.8°C 49.3°F9.6°C 96% 5.0 mph SE8.0 kmh SE 6.0 mph9.7 kmh 29.68 in1005.1 mb 0.00 in0.0 mm 0.00 in0.0 mm 1.21 in30.7 mm
12:08 PM 51.5°F10.8°C 49.3°F9.6°C 96% 2.0 mph E3.2 kmh E 6.0 mph9.7 kmh 29.68 in1005.1 mb 0.00 in0.0 mm 0.00 in0.0 mm 1.21 in30.7 mm
12:10 PM 51.5°F10.8°C 49.3°F9.6°C 96% 3.0 mph SE4.8 kmh SE 7.0 mph11.3 kmh 29.68 in1005.1 mb 0.00 in0.0 mm 0.00 in0.0 mm 1.21 in30.7 mm
12:12 PM 51.6°F10.9°C 49.4°F9.7°C 96% 4.0 mph SE6.4 kmh SE 7.0 mph11.3 kmh 29.68 in1005.1 mb 0.00 in0.0 mm 0.00 in0.0 mm 1.21 in30.7 mm
12:14 PM 51.7°F10.9°C 49.5°F9.7°C 96% 2.0 mph ENE3.2 kmh ENE 7.0 mph11.3 kmh 29.68 in1005.1 mb 0.00 in0.0 mm 0.00 in0.0 mm 1.21 in30.7 mm
12:16 PM 51.8°F11.0°C 49.5°F9.7°C 96% Calm Calm 7.0 mph11.3 kmh 29.68 in1005.1 mb 0.00 in0.0 mm 0.00 in0.0 mm 1.21 in30.7 mm
12:18 PM 52.0°F11.1°C 50.0°F10.0°C 97% 5.0 mph SSE8.0 kmh SSE 7.0 mph11.3 kmh 29.68 in1005.1 mb 0.00 in0.0 mm 0.00 in0.0 mm 1.21 in30.7 mm
12:20 PM 52.0°F11.1°C 49.7°F9.8°C 96% 3.0 mph ENE4.8 kmh ENE 7.0 mph11.3 kmh 29.68 in1005.1 mb 0.00 in0.0 mm 0.00 in0.0 mm 1.21 in30.7 mm
12:22 PM 52.2°F11.2°C 49.9°F9.9°C 96% 4.0 mph ESE6.4 kmh ESE 8.0 mph12.9 kmh 29.68 in1005.1 mb 0.00 in0.0 mm 0.00 in0.0 mm 1.21 in30.7 mm
12:24 PM 52.2°F11.2°C 49.9°F9.9°C 96% 1.0 mph SSE1.6 kmh SSE 8.0 mph12.9 kmh 29.68 in1005.1 mb 0.00 in0.0 mm 0.00 in0.0 mm 1.21 in30.7 mm
12:26 PM 52.3°F11.3°C 50.0°F10.0°C 96% 1.0 mph ENE1.6 kmh ENE 8.0 mph12.9 kmh 29.67 in1004.7 mb 0.00 in0.0 mm 0.00 in0.0 mm 1.22 in31.0 mm
12:28 PM 52.4°F11.3°C 50.1°F10.1°C 96% 2.0 mph SE3.2 kmh SE 8.0 mph12.9 kmh 29.68 in1005.1 mb 0.00 in0.0 mm 0.00 in0.0 mm 1.22 in31.0 mm
12:30 PM 52.4°F11.3°C 50.1°F10.1°C 96% 2.0 mph E3.2 kmh E 8.0 mph12.9 kmh 29.67 in1004.7 mb 0.00 in0.0 mm 0.00 in0.0 mm 1.22 in31.0 mm
12:32 PM 52.5°F11.4°C 50.2°F10.1°C 96% 3.0 mph SE4.8 kmh SE 8.0 mph12.9 kmh 29.67 in1004.7 mb 0.00 in0.0 mm 0.00 in0.0 mm 1.22 in31.0 mm
12:34 PM 52.6°F11.4°C 50.3°F10.2°C 96% 2.0 mph NNE3.2 kmh NNE 8.0 mph12.9 kmh 29.68 in1005.1 mb 0.00 in0.0 mm 0.00 in0.0 mm 1.22 in31.0 mm
12:36 PM 52.6°F11.4°C 50.3°F10.2°C 96% 2.0 mph SE3.2 kmh SE 8.0 mph12.9 kmh 29.67 in1004.7 mb 0.00 in0.0 mm 0.00 in0.0 mm 1.22 in31.0 mm
12:38 PM 52.7°F11.5°C 50.4°F10.2°C 96% 2.0 mph ESE3.2 kmh ESE 8.0 mph12.9 kmh 29.67 in1004.7 mb 0.06 in1.5 mm 1.80 in45.7 mm 1.23 in31.2 mm
12:40 PM 52.8°F11.6°C 50.5°F10.3°C 96% 1.0 mph SE1.6 kmh SE 8.0 mph12.9 kmh 29.67 in1004.7 mb 0.06 in1.5 mm 0.00 in0.0 mm 1.23 in31.2 mm
12:42 PM 52.8°F11.6°C 50.5°F10.3°C 96% 2.0 mph ESE3.2 kmh ESE 7.0 mph11.3 kmh 29.67 in1004.7 mb 0.06 in1.5 mm 0.00 in0.0 mm 1.23 in31.2 mm
12:44 PM 52.8°F11.6°C 50.5°F10.3°C 96% 2.0 mph SSE3.2 kmh SSE 7.0 mph11.3 kmh 29.66 in1004.4 mb 0.06 in1.5 mm 0.00 in0.0 mm 1.23 in31.2 mm
12:46 PM 52.9°F11.6°C 50.6°F10.3°C 96% 1.0 mph SSW1.6 kmh SSW 7.0 mph11.3 kmh 29.67 in1004.7 mb 0.06 in1.5 mm 0.00 in0.0 mm 1.23 in31.2 mm
12:48 PM 52.9°F11.6°C 50.6°F10.3°C 96% 3.0 mph E4.8 kmh E 7.0 mph11.3 kmh 29.67 in1004.7 mb 0.05 in1.3 mm 0.00 in0.0 mm 1.23 in31.2 mm
12:50 PM 53.0°F11.7°C 50.7°F10.4°C 96% 1.0 mph E1.6 kmh E 7.0 mph11.3 kmh 29.66 in1004.4 mb 0.04 in1.0 mm 0.00 in0.0 mm 1.23 in31.2 mm
12:52 PM 53.2°F11.8°C 50.9°F10.5°C 96% Calm Calm 5.0 mph8.0 kmh 29.66 in1004.4 mb 0.04 in1.0 mm 0.00 in0.0 mm 1.23 in31.2 mm
12:54 PM 53.2°F11.8°C 50.9°F10.5°C 96% 1.0 mph S1.6 kmh S 5.0 mph8.0 kmh 29.66 in1004.4 mb 0.04 in1.0 mm 0.00 in0.0 mm 1.24 in31.5 mm
12:56 PM 53.3°F11.8°C 51.0°F10.6°C 96% 2.0 mph SSE3.2 kmh SSE 5.0 mph8.0 kmh 29.66 in1004.4 mb 0.04 in1.0 mm 0.00 in0.0 mm 1.24 in31.5 mm
12:58 PM 53.4°F11.9°C 51.1°F10.6°C 96% 2.0 mph SE3.2 kmh SE 5.0 mph8.0 kmh 29.66 in1004.4 mb 0.04 in1.0 mm 0.00 in0.0 mm 1.24 in31.5 mm
01:00 PM 53.4°F11.9°C 51.1°F10.6°C 96% 1.0 mph SE1.6 kmh SE 5.0 mph8.0 kmh 29.66 in1004.4 mb 0.04 in1.0 mm 0.00 in0.0 mm 1.24 in31.5 mm
01:02 PM 53.5°F11.9°C 51.2°F10.7°C 96% 2.0 mph SE3.2 kmh SE 5.0 mph8.0 kmh 29.66 in1004.4 mb 0.04 in1.0 mm 0.00 in0.0 mm 1.24 in31.5 mm
01:04 PM 53.5°F11.9°C 51.2°F10.7°C 96% 3.0 mph SE4.8 kmh SE 6.0 mph9.7 kmh 29.66 in1004.4 mb 0.04 in1.0 mm 0.00 in0.0 mm 1.24 in31.5 mm
01:06 PM 53.5°F11.9°C 51.2°F10.7°C 96% 1.0 mph E1.6 kmh E 6.0 mph9.7 kmh 29.66 in1004.4 mb 0.04 in1.0 mm 0.00 in0.0 mm 1.24 in31.5 mm
01:08 PM 53.6°F12.0°C 51.3°F10.7°C 96% 1.0 mph SSE1.6 kmh SSE 6.0 mph9.7 kmh 29.66 in1004.4 mb 0.04 in1.0 mm 0.00 in0.0 mm 1.24 in31.5 mm
01:10 PM 53.7°F12.1°C 51.4°F10.8°C 96% 1.0 mph SSE1.6 kmh SSE 6.0 mph9.7 kmh 29.66 in1004.4 mb 0.04 in1.0 mm 0.00 in0.0 mm 1.25 in31.8 mm
01:12 PM 53.7°F12.1°C 51.4°F10.8°C 96% 1.0 mph SE1.6 kmh SE 6.0 mph9.7 kmh 29.66 in1004.4 mb 0.04 in1.0 mm 0.00 in0.0 mm 1.25 in31.8 mm
01:14 PM 53.8°F12.1°C 51.5°F10.8°C 96% Calm Calm 6.0 mph9.7 kmh 29.66 in1004.4 mb 0.04 in1.0 mm 0.00 in0.0 mm 1.25 in31.8 mm
01:16 PM 53.8°F12.1°C 51.5°F10.8°C 96% 2.0 mph ESE3.2 kmh ESE 2.0 mph3.2 kmh 29.65 in1004.1 mb 0.04 in1.0 mm 0.00 in0.0 mm 1.25 in31.8 mm
01:18 PM 53.9°F12.2°C 51.6°F10.9°C 96% 2.0 mph NE3.2 kmh NE 4.0 mph6.4 kmh 29.66 in1004.4 mb 0.04 in1.0 mm 0.00 in0.0 mm 1.25 in31.8 mm
01:20 PM 54.0°F12.2°C 51.7°F10.9°C 96% 1.0 mph SE1.6 kmh SE 4.0 mph6.4 kmh 29.65 in1004.1 mb 0.04 in1.0 mm 0.00 in0.0 mm 1.25 in31.8 mm
01:22 PM 54.1°F12.3°C 51.8°F11.0°C 96% 1.0 mph ESE1.6 kmh ESE 4.0 mph6.4 kmh 29.65 in1004.1 mb 0.05 in1.3 mm 0.30 in7.6 mm 1.25 in31.8 mm
01:24 PM 54.2°F12.3°C 51.9°F11.1°C 96% 2.0 mph E3.2 kmh E 4.0 mph6.4 kmh 29.65 in1004.1 mb 0.05 in1.3 mm 0.00 in0.0 mm 1.26 in32.0 mm
01:26 PM 54.3°F12.4°C 52.0°F11.1°C 96% 1.0 mph E1.6 kmh E 4.0 mph6.4 kmh 29.65 in1004.1 mb 0.05 in1.3 mm 0.00 in0.0 mm 1.26 in32.0 mm
01:28 PM 54.4°F12.4°C 52.1°F11.2°C 96% Calm Calm 4.0 mph6.4 kmh 29.65 in1004.1 mb 0.05 in1.3 mm 0.00 in0.0 mm 1.26 in32.0 mm
01:30 PM 54.5°F12.5°C 52.2°F11.2°C 96% 1.0 mph E1.6 kmh E 4.0 mph6.4 kmh 29.65 in1004.1 mb 0.05 in1.3 mm 0.00 in0.0 mm 1.26 in32.0 mm
01:32 PM 54.6°F12.6°C 52.3°F11.3°C 96% 3.0 mph SE4.8 kmh SE 4.0 mph6.4 kmh 29.65 in1004.1 mb 0.05 in1.3 mm 0.00 in0.0 mm 1.26 in32.0 mm
01:34 PM 54.7°F12.6°C 52.4°F11.3°C 96% 3.0 mph SE4.8 kmh SE 7.0 mph11.3 kmh 29.64 in1003.7 mb 0.05 in1.3 mm 0.00 in0.0 mm 1.26 in32.0 mm
01:36 PM 54.8°F12.7°C 52.5°F11.4°C 96% 2.0 mph SE3.2 kmh SE 7.0 mph11.3 kmh 29.64 in1003.7 mb 0.04 in1.0 mm 0.00 in0.0 mm 1.26 in32.0 mm
01:38 PM 55.0°F12.8°C 53.0°F11.7°C 97% 2.0 mph ESE3.2 kmh ESE 7.0 mph11.3 kmh 29.64 in1003.7 mb 0.04 in1.0 mm 0.00 in0.0 mm 1.26 in32.0 mm
01:40 PM 55.0°F12.8°C 53.0°F11.7°C 97% 3.0 mph E4.8 kmh E 8.0 mph12.9 kmh 29.64 in1003.7 mb 0.00 in0.0 mm 0.00 in0.0 mm 1.26 in32.0 mm
01:42 PM 55.1°F12.8°C 52.8°F11.6°C 96% 1.0 mph E1.6 kmh E 8.0 mph12.9 kmh 29.64 in1003.7 mb 0.00 in0.0 mm 0.00 in0.0 mm 1.26 in32.0 mm
01:44 PM 55.3°F12.9°C 53.0°F11.7°C 96% 2.0 mph E3.2 kmh E 8.0 mph12.9 kmh 29.64 in1003.7 mb 0.00 in0.0 mm 0.00 in0.0 mm 1.26 in32.0 mm
01:46 PM 55.4°F13.0°C 53.1°F11.7°C 96% 1.0 mph E1.6 kmh E 8.0 mph12.9 kmh 29.63 in1003.4 mb 0.00 in0.0 mm 0.00 in0.0 mm 1.26 in32.0 mm
01:48 PM 55.5°F13.1°C 53.5°F11.9°C 97% 2.0 mph SE3.2 kmh SE 8.0 mph12.9 kmh 29.64 in1003.7 mb 0.00 in0.0 mm 0.00 in0.0 mm 1.26 in32.0 mm
01:50 PM 55.6°F13.1°C 53.6°F12.0°C 97% 1.0 mph S1.6 kmh S 8.0 mph12.9 kmh 29.63 in1003.4 mb 0.00 in0.0 mm 0.00 in0.0 mm 1.27 in32.3 mm
01:52 PM 55.7°F13.2°C 53.7°F12.1°C 97% 2.0 mph ENE3.2 kmh ENE 8.0 mph12.9 kmh 29.63 in1003.4 mb 0.00 in0.0 mm 0.00 in0.0 mm 1.27 in32.3 mm
01:54 PM 55.9°F13.3°C 53.6°F12.0°C 96% 1.0 mph SSE1.6 kmh SSE 8.0 mph12.9 kmh 29.63 in1003.4 mb 0.00 in0.0 mm 0.00 in0.0 mm 1.27 in32.3 mm
01:56 PM 56.1°F13.4°C 53.8°F12.1°C 96% 2.0 mph E3.2 kmh E 8.0 mph12.9 kmh 29.63 in1003.4 mb 0.00 in0.0 mm 0.00 in0.0 mm 1.27 in32.3 mm
01:58 PM 56.2°F13.4°C 54.2°F12.3°C 97% 1.0 mph E1.6 kmh E 8.0 mph12.9 kmh 29.63 in1003.4 mb 0.00 in0.0 mm 0.00 in0.0 mm 1.27 in32.3 mm
02:00 PM 56.3°F13.5°C 54.3°F12.4°C 97% 2.0 mph ESE3.2 kmh ESE 4.0 mph6.4 kmh 29.62 in1003.0 mb 0.00 in0.0 mm 0.00 in0.0 mm 1.27 in32.3 mm
02:02 PM 56.4°F13.6°C 54.4°F12.4°C 97% 1.0 mph ENE1.6 kmh ENE 6.0 mph9.7 kmh 29.62 in1003.0 mb 0.00 in0.0 mm 0.00 in0.0 mm 1.27 in32.3 mm
02:04 PM 56.5°F13.6°C 54.5°F12.5°C 97% 1.0 mph SE1.6 kmh SE 6.0 mph9.7 kmh 29.62 in1003.0 mb 0.00 in0.0 mm 0.00 in0.0 mm 1.27 in32.3 mm
02:06 PM 56.6°F13.7°C 54.3°F12.4°C 96% Calm Calm -- 29.62 in1003.0 mb 0.00 in0.0 mm 0.00 in0.0 mm 1.27 in32.3 mm
02:08 PM 56.7°F13.7°C 54.4°F12.4°C 96% 1.0 mph SSE1.6 kmh SSE 2.0 mph3.2 kmh 29.62 in1003.0 mb 0.00 in0.0 mm 0.00 in0.0 mm 1.27 in32.3 mm
02:10 PM 56.7°F13.7°C 54.4°F12.4°C 96% 1.0 mph N1.6 kmh N 2.0 mph3.2 kmh 29.62 in1003.0 mb 0.00 in0.0 mm 0.00 in0.0 mm 1.27 in32.3 mm
02:12 PM 56.8°F13.8°C 54.8°F12.7°C 97% 1.0 mph N1.6 kmh N 2.0 mph3.2 kmh 29.62 in1003.0 mb 0.00 in0.0 mm 0.00 in0.0 mm 1.27 in32.3 mm
02:14 PM 56.9°F13.8°C 54.9°F12.7°C 97% Calm Calm 2.0 mph3.2 kmh 29.62 in1003.0 mb 0.00 in0.0 mm 0.00 in0.0 mm 1.27 in32.3 mm
02:16 PM 56.9°F13.8°C 54.9°F12.7°C 97% Calm Calm -- 29.62 in1003.0 mb 0.00 in0.0 mm 0.00 in0.0 mm 1.27 in32.3 mm
02:18 PM 57.0°F13.9°C 54.7°F12.6°C 96% 1.0 mph N1.6 kmh N 2.0 mph3.2 kmh 29.62 in1003.0 mb 0.59 in15.0 mm 17.70 in449.6 mm 1.30 in33.0 mm
02:20 PM 57.0°F13.9°C 54.7°F12.6°C 96% 1.0 mph N1.6 kmh N 2.0 mph3.2 kmh 29.62 in1003.0 mb 0.20 in5.1 mm 0.00 in0.0 mm 1.30 in33.0 mm
02:22 PM 57.1°F13.9°C 54.8°F12.7°C 96% Calm Calm 2.0 mph3.2 kmh 29.61 in1002.7 mb 0.12 in3.0 mm 0.00 in0.0 mm 1.30 in33.0 mm
02:24 PM 57.1°F13.9°C 54.8°F12.7°C 96% Calm Calm 1.0 mph1.6 kmh 29.61 in1002.7 mb 0.09 in2.3 mm 0.00 in0.0 mm 1.30 in33.0 mm
02:26 PM 57.1°F13.9°C 54.8°F12.7°C 96% 2.0 mph ENE3.2 kmh ENE 3.0 mph4.8 kmh 29.61 in1002.7 mb 0.07 in1.8 mm 0.00 in0.0 mm 1.30 in33.0 mm
02:28 PM 57.2°F14.0°C 54.9°F12.7°C 96% 1.0 mph ENE1.6 kmh ENE 3.0 mph4.8 kmh 29.61 in1002.7 mb 0.06 in1.5 mm 0.00 in0.0 mm 1.31 in33.3 mm
02:30 PM 57.2°F14.0°C 54.9°F12.7°C 96% 1.0 mph ENE1.6 kmh ENE 3.0 mph4.8 kmh 29.61 in1002.7 mb 0.06 in1.5 mm 0.00 in0.0 mm 1.31 in33.3 mm
02:32 PM 57.3°F14.1°C 55.0°F12.8°C 96% Calm Calm 3.0 mph4.8 kmh 29.61 in1002.7 mb 0.06 in1.5 mm 0.00 in0.0 mm 1.31 in33.3 mm
02:34 PM 57.3°F14.1°C 55.0°F12.8°C 96% 2.0 mph ENE3.2 kmh ENE 3.0 mph4.8 kmh 29.61 in1002.7 mb 0.06 in1.5 mm 0.00 in0.0 mm 1.31 in33.3 mm
02:36 PM 57.4°F14.1°C 55.1°F12.8°C 96% 2.0 mph WNW3.2 kmh WNW 3.0 mph4.8 kmh 29.61 in1002.7 mb 0.07 in1.8 mm 0.30 in7.6 mm 1.31 in33.3 mm
02:38 PM 57.4°F14.1°C 55.1°F12.8°C 96% 1.0 mph WNW1.6 kmh WNW 3.0 mph4.8 kmh 29.61 in1002.7 mb 0.07 in1.8 mm 0.00 in0.0 mm 1.32 in33.5 mm
02:40 PM 57.5°F14.2°C 55.2°F12.9°C 96% Calm Calm 3.0 mph4.8 kmh 29.61 in1002.7 mb 0.07 in1.8 mm 0.00 in0.0 mm 1.32 in33.5 mm
02:42 PM 57.5°F14.2°C 55.2°F12.9°C 96% Calm Calm -- 29.61 in1002.7 mb 0.07 in1.8 mm 0.00 in0.0 mm 1.32 in33.5 mm
02:44 PM 57.5°F14.2°C 55.2°F12.9°C 96% 2.0 mph NE3.2 kmh NE 3.0 mph4.8 kmh 29.60 in1002.4 mb 0.09 in2.3 mm 0.60 in15.2 mm 1.33 in33.8 mm
02:46 PM 57.5°F14.2°C 55.2°F12.9°C 96% 2.0 mph NE3.2 kmh NE 3.0 mph4.8 kmh 29.60 in1002.4 mb 0.09 in2.3 mm 0.00 in0.0 mm 1.33 in33.8 mm
02:48 PM 57.5°F14.2°C 55.2°F12.9°C 96% Calm Calm 3.0 mph4.8 kmh 29.60 in1002.4 mb 0.09 in2.3 mm 0.00 in0.0 mm 1.33 in33.8 mm
02:50 PM 57.6°F14.2°C 55.3°F12.9°C 96% Calm Calm 3.0 mph4.8 kmh 29.59 in1002.0 mb 0.10 in2.5 mm 0.30 in7.6 mm 1.34 in34.0 mm
02:52 PM 57.6°F14.2°C 55.3°F12.9°C 96% 1.0 mph NE1.6 kmh NE 1.0 mph1.6 kmh 29.59 in1002.0 mb 0.10 in2.5 mm 0.00 in0.0 mm 1.34 in34.0 mm
02:54 PM 57.7°F14.3°C 55.4°F13.0°C 96% 2.0 mph NE3.2 kmh NE 2.0 mph3.2 kmh 29.59 in1002.0 mb 0.13 in3.3 mm 0.90 in22.9 mm 1.35 in34.3 mm
02:56 PM 57.7°F14.3°C 55.4°F13.0°C 96% 1.0 mph NE1.6 kmh NE 2.0 mph3.2 kmh 29.59 in1002.0 mb 0.25 in6.4 mm 3.60 in91.4 mm 1.35 in34.3 mm
02:58 PM 57.8°F14.3°C 55.5°F13.1°C 96% 1.0 mph NE1.6 kmh NE 2.0 mph3.2 kmh 29.59 in1002.0 mb 0.25 in6.4 mm 0.00 in0.0 mm 1.36 in34.5 mm
03:00 PM 57.8°F14.3°C 55.5°F13.1°C 96% Calm Calm 2.0 mph3.2 kmh 29.60 in1002.4 mb 0.18 in4.6 mm 0.00 in0.0 mm 1.37 in34.8 mm
03:02 PM 57.8°F14.3°C 55.5°F13.1°C 96% 1.0 mph NE1.6 kmh NE 2.0 mph3.2 kmh 29.59 in1002.0 mb 0.18 in4.6 mm 0.00 in0.0 mm 1.37 in34.8 mm
03:04 PM 57.9°F14.4°C 55.6°F13.1°C 96% Calm Calm 3.0 mph4.8 kmh 29.59 in1002.0 mb 0.15 in3.8 mm 0.00 in0.0 mm 1.38 in35.1 mm
03:06 PM 58.0°F14.4°C 55.7°F13.2°C 96% Calm Calm -- 29.59 in1002.0 mb 0.15 in3.8 mm 0.00 in0.0 mm 1.38 in35.1 mm
03:08 PM 58.0°F14.4°C 55.7°F13.2°C 96% Calm Calm 1.0 mph1.6 kmh 29.59 in1002.0 mb 0.13 in3.3 mm 0.00 in0.0 mm 1.38 in35.1 mm
03:10 PM 58.1°F14.5°C 55.8°F13.2°C 96% Calm Calm 1.0 mph1.6 kmh 29.59 in1002.0 mb 0.09 in2.3 mm 0.00 in0.0 mm 1.38 in35.1 mm
03:12 PM 58.2°F14.6°C 55.9°F13.3°C 96% Calm Calm 2.0 mph3.2 kmh 29.60 in1002.4 mb 0.09 in2.3 mm 0.00 in0.0 mm 1.39 in35.3 mm
03:14 PM 58.2°F14.6°C 55.9°F13.3°C 96% 1.0 mph W1.6 kmh W 3.0 mph4.8 kmh 29.60 in1002.4 mb 0.09 in2.3 mm 0.00 in0.0 mm 1.39 in35.3 mm
03:16 PM 58.2°F14.6°C 55.9°F13.3°C 96% 4.0 mph W6.4 kmh W 4.0 mph6.4 kmh 29.60 in1002.4 mb 0.14 in3.6 mm 1.50 in38.1 mm 1.40 in35.6 mm
03:18 PM 58.2°F14.6°C 55.9°F13.3°C 96% 2.0 mph WNW3.2 kmh WNW 4.0 mph6.4 kmh 29.60 in1002.4 mb 0.14 in3.6 mm 0.00 in0.0 mm 1.40 in35.6 mm
03:20 PM 58.2°F14.6°C 55.9°F13.3°C 96% 2.0 mph NNW3.2 kmh NNW 4.0 mph6.4 kmh 29.59 in1002.0 mb 0.10 in2.5 mm 0.00 in0.0 mm 1.40 in35.6 mm
03:22 PM 58.2°F14.6°C 55.9°F13.3°C 96% 1.0 mph S1.6 kmh S 4.0 mph6.4 kmh 29.59 in1002.0 mb 0.08 in2.0 mm 0.00 in0.0 mm 1.40 in35.6 mm
03:24 PM 58.2°F14.6°C 55.9°F13.3°C 96% Calm Calm 4.0 mph6.4 kmh 29.59 in1002.0 mb 0.06 in1.5 mm 0.00 in0.0 mm 1.40 in35.6 mm
03:26 PM 58.2°F14.6°C 55.9°F13.3°C 96% 1.0 mph N1.6 kmh N 4.0 mph6.4 kmh 29.58 in1001.7 mb 0.06 in1.5 mm 0.00 in0.0 mm 1.41 in35.8 mm
03:28 PM 58.3°F14.6°C 56.0°F13.3°C 96% 2.0 mph S3.2 kmh S 4.0 mph6.4 kmh 29.58 in1001.7 mb 0.06 in1.5 mm 0.00 in0.0 mm 1.41 in35.8 mm
03:30 PM 58.4°F14.7°C 56.1°F13.4°C 96% 1.0 mph SSE1.6 kmh SSE 4.0 mph6.4 kmh 29.58 in1001.7 mb 0.06 in1.5 mm 0.00 in0.0 mm 1.41 in35.8 mm
03:32 PM 58.5°F14.7°C 56.2°F13.4°C 96% 1.0 mph SE1.6 kmh SE 4.0 mph6.4 kmh 29.58 in1001.7 mb 0.06 in1.5 mm 0.00 in0.0 mm 1.41 in35.8 mm
03:34 PM 58.7°F14.8°C 56.7°F13.7°C 97% 2.0 mph E3.2 kmh E 4.0 mph6.4 kmh 29.58 in1001.7 mb 0.06 in1.5 mm 0.00 in0.0 mm 1.41 in35.8 mm
03:36 PM 58.8°F14.9°C 56.5°F13.6°C 96% 1.0 mph SSE1.6 kmh SSE 4.0 mph6.4 kmh 29.58 in1001.7 mb 0.05 in1.3 mm 0.00 in0.0 mm 1.41 in35.8 mm
03:38 PM 59.0°F15.0°C 56.7°F13.7°C 96% 2.0 mph SSE3.2 kmh SSE 4.0 mph6.4 kmh 29.57 in1001.4 mb 0.05 in1.3 mm 0.00 in0.0 mm 1.42 in36.1 mm
03:40 PM 59.1°F15.1°C 56.8°F13.8°C 96% 2.0 mph ESE3.2 kmh ESE 4.0 mph6.4 kmh 29.57 in1001.4 mb 0.05 in1.3 mm 0.00 in0.0 mm 1.42 in36.1 mm
03:42 PM 59.2°F15.1°C 56.9°F13.8°C 96% 4.0 mph SSE6.4 kmh SSE 4.0 mph6.4 kmh 29.57 in1001.4 mb 0.05 in1.3 mm 0.00 in0.0 mm 1.42 in36.1 mm
03:44 PM 59.3°F15.2°C 57.3°F14.1°C 97% Calm Calm 4.0 mph6.4 kmh 29.57 in1001.4 mb 0.05 in1.3 mm 0.00 in0.0 mm 1.42 in36.1 mm
03:46 PM 59.3°F15.2°C 57.3°F14.1°C 97% Calm Calm 4.0 mph6.4 kmh 29.57 in1001.4 mb 0.07 in1.8 mm 0.60 in15.2 mm 1.42 in36.1 mm
03:48 PM 59.5°F15.3°C 57.5°F14.2°C 97% Calm Calm 5.0 mph8.0 kmh 29.57 in1001.4 mb 0.07 in1.8 mm 0.00 in0.0 mm 1.43 in36.3 mm
03:50 PM 59.6°F15.3°C 57.6°F14.2°C 97% 1.0 mph SW1.6 kmh SW 5.0 mph8.0 kmh 29.57 in1001.4 mb 0.07 in1.8 mm 0.00 in0.0 mm 1.43 in36.3 mm
03:52 PM 59.6°F15.3°C 57.6°F14.2°C 97% 3.0 mph W4.8 kmh W 5.0 mph8.0 kmh 29.57 in1001.4 mb 0.07 in1.8 mm 0.00 in0.0 mm 1.43 in36.3 mm
03:54 PM 59.6°F15.3°C 57.3°F14.1°C 96% 3.0 mph WSW4.8 kmh WSW 6.0 mph9.7 kmh 29.57 in1001.4 mb 0.07 in1.8 mm 0.00 in0.0 mm 1.43 in36.3 mm
03:56 PM 59.6°F15.3°C 57.3°F14.1°C 96% 3.0 mph WSW4.8 kmh WSW 7.0 mph11.3 kmh 29.57 in1001.4 mb 0.06 in1.5 mm 0.00 in0.0 mm 1.44 in36.6 mm
03:58 PM 59.3°F15.2°C 57.0°F13.9°C 96% 7.0 mph NW11.3 kmh NW 11.0 mph17.7 kmh 29.57 in1001.4 mb 0.06 in1.5 mm 0.00 in0.0 mm 1.44 in36.6 mm
04:00 PM 58.1°F14.5°C 55.5°F13.1°C 95% 4.0 mph SW6.4 kmh SW 12.0 mph19.3 kmh 29.56 in1001.0 mb 0.06 in1.5 mm 0.00 in0.0 mm 1.44 in36.6 mm
04:02 PM 56.5°F13.6°C 53.3°F11.8°C 93% 8.0 mph SW12.9 kmh SW 17.0 mph27.4 kmh 29.58 in1001.7 mb 0.06 in1.5 mm 0.00 in0.0 mm 1.44 in36.6 mm
04:04 PM 55.7°F13.2°C 52.5°F11.4°C 93% 4.0 mph NW6.4 kmh NW 17.0 mph27.4 kmh 29.59 in1002.0 mb 1.49 in37.8 mm 42.90 in1089.7 mm 1.45 in36.8 mm
04:06 PM 54.9°F12.7°C 51.7°F10.9°C 93% 7.0 mph WNW11.3 kmh WNW 17.0 mph27.4 kmh 29.58 in1001.7 mb 0.52 in13.2 mm 0.00 in0.0 mm 1.48 in37.6 mm
04:08 PM 54.1°F12.3°C 50.6°F10.3°C 92% 6.0 mph NNW9.7 kmh NNW 17.0 mph27.4 kmh 29.58 in1001.7 mb 1.55 in39.4 mm 30.90 in784.9 mm 1.50 in38.1 mm
04:10 PM 53.5°F11.9°C 50.3°F10.2°C 93% 10.0 mph W16.1 kmh W 17.0 mph27.4 kmh 29.58 in1001.7 mb 0.93 in23.6 mm 0.00 in0.0 mm 1.54 in39.1 mm
04:12 PM 52.9°F11.6°C 49.7°F9.8°C 93% 8.0 mph NW12.9 kmh NW 17.0 mph27.4 kmh 29.57 in1001.4 mb 0.53 in13.5 mm 0.00 in0.0 mm 1.56 in39.6 mm
04:14 PM 52.6°F11.4°C 49.4°F9.7°C 93% 5.0 mph NW8.0 kmh NW 17.0 mph27.4 kmh 29.57 in1001.4 mb 0.32 in8.1 mm 0.00 in0.0 mm 1.57 in39.9 mm
04:16 PM 52.3°F11.3°C 49.5°F9.7°C 94% 8.0 mph NNW12.9 kmh NNW 17.0 mph27.4 kmh 29.57 in1001.4 mb 0.30 in7.6 mm 0.00 in0.0 mm 1.58 in40.1 mm
04:18 PM 52.1°F11.2°C 49.3°F9.6°C 94% 7.0 mph NW11.3 kmh NW 17.0 mph27.4 kmh 29.57 in1001.4 mb 0.28 in7.1 mm 0.00 in0.0 mm 1.59 in40.4 mm
04:20 PM 52.1°F11.2°C 49.3°F9.6°C 94% 4.0 mph W6.4 kmh W 17.0 mph27.4 kmh 29.57 in1001.4 mb 0.17 in4.3 mm 0.00 in0.0 mm 1.59 in40.4 mm
04:22 PM 52.1°F11.2°C 49.3°F9.6°C 94% 4.0 mph NNW6.4 kmh NNW 12.0 mph19.3 kmh 29.58 in1001.7 mb 0.36 in9.1 mm 5.70 in144.8 mm 1.60 in40.6 mm
04:24 PM 52.0°F11.1°C 49.5°F9.7°C 95% 9.0 mph NW14.5 kmh NW 12.0 mph19.3 kmh 29.59 in1002.0 mb 0.39 in9.9 mm 0.90 in22.9 mm 1.62 in41.1 mm
04:26 PM 51.9°F11.1°C 49.4°F9.7°C 95% 5.0 mph NW8.0 kmh NW 12.0 mph19.3 kmh 29.59 in1002.0 mb 0.36 in9.1 mm 0.00 in0.0 mm 1.63 in41.4 mm
04:28 PM 51.9°F11.1°C 49.4°F9.7°C 95% 3.0 mph NNW4.8 kmh NNW 12.0 mph19.3 kmh 29.58 in1001.7 mb 0.19 in4.8 mm 0.00 in0.0 mm 1.64 in41.7 mm
04:30 PM 51.8°F11.0°C 49.3°F9.6°C 95% 5.0 mph NW8.0 kmh NW 12.0 mph19.3 kmh 29.59 in1002.0 mb 0.19 in4.8 mm 0.00 in0.0 mm 1.64 in41.7 mm
04:32 PM 51.8°F11.0°C 49.3°F9.6°C 95% 2.0 mph WNW3.2 kmh WNW 12.0 mph19.3 kmh 29.59 in1002.0 mb 0.17 in4.3 mm 0.00 in0.0 mm 1.65 in41.9 mm
04:34 PM 51.8°F11.0°C 49.3°F9.6°C 95% 5.0 mph NW8.0 kmh NW 12.0 mph19.3 kmh 29.59 in1002.0 mb 0.17 in4.3 mm 0.00 in0.0 mm 1.65 in41.9 mm
04:36 PM 51.8°F11.0°C 49.3°F9.6°C 95% 4.0 mph NW6.4 kmh NW 12.0 mph19.3 kmh 29.59 in1002.0 mb 0.12 in3.0 mm 0.00 in0.0 mm 1.65 in41.9 mm
04:38 PM 51.7°F10.9°C 49.2°F9.6°C 95% 3.0 mph NW4.8 kmh NW 12.0 mph19.3 kmh 29.59 in1002.0 mb 0.11 in2.8 mm 0.00 in0.0 mm 1.66 in42.2 mm
04:40 PM 51.7°F10.9°C 49.2°F9.6°C 95% 4.0 mph WNW6.4 kmh WNW 12.0 mph19.3 kmh 29.59 in1002.0 mb 0.11 in2.8 mm 0.00 in0.0 mm 1.66 in42.2 mm
04:42 PM 51.7°F10.9°C 49.2°F9.6°C 95% 4.0 mph NNW6.4 kmh NNW 9.0 mph14.5 kmh 29.59 in1002.0 mb 0.11 in2.8 mm 0.00 in0.0 mm 1.66 in42.2 mm
04:44 PM 51.7°F10.9°C 49.2°F9.6°C 95% 5.0 mph NW8.0 kmh NW 9.0 mph14.5 kmh 29.59 in1002.0 mb 0.08 in2.0 mm 0.00 in0.0 mm 1.66 in42.2 mm
04:46 PM 51.7°F10.9°C 49.2°F9.6°C 95% 3.0 mph NW4.8 kmh NW 9.0 mph14.5 kmh 29.60 in1002.4 mb 0.08 in2.0 mm 0.00 in0.0 mm 1.67 in42.4 mm
04:48 PM 51.7°F10.9°C 49.2°F9.6°C 95% 3.0 mph NW4.8 kmh NW 9.0 mph14.5 kmh 29.60 in1002.4 mb 0.08 in2.0 mm 0.00 in0.0 mm 1.67 in42.4 mm
04:50 PM 51.7°F10.9°C 49.2°F9.6°C 95% 3.0 mph WNW4.8 kmh WNW 9.0 mph14.5 kmh 29.60 in1002.4 mb 0.12 in3.0 mm 1.20 in30.5 mm 1.68 in42.7 mm
04:52 PM 51.7°F10.9°C 49.2°F9.6°C 95% 2.0 mph NW3.2 kmh NW 7.0 mph11.3 kmh 29.60 in1002.4 mb 0.26 in6.6 mm 4.20 in106.7 mm 1.68 in42.7 mm
04:54 PM 51.7°F10.9°C 49.2°F9.6°C 95% 3.0 mph W4.8 kmh W 7.0 mph11.3 kmh 29.60 in1002.4 mb 0.26 in6.6 mm 0.00 in0.0 mm 1.69 in42.9 mm
04:56 PM 51.7°F10.9°C 49.2°F9.6°C 95% 3.0 mph WNW4.8 kmh WNW 7.0 mph11.3 kmh 29.61 in1002.7 mb 0.21 in5.3 mm 0.00 in0.0 mm 1.70 in43.2 mm
04:58 PM 51.7°F10.9°C 49.2°F9.6°C 95% 2.0 mph WNW3.2 kmh WNW 7.0 mph11.3 kmh 29.61 in1002.7 mb 0.28 in7.1 mm 2.10 in53.3 mm 1.71 in43.4 mm
05:00 PM 51.7°F10.9°C 49.2°F9.6°C 95% 1.0 mph NW1.6 kmh NW 7.0 mph11.3 kmh 29.61 in1002.7 mb 0.29 in7.4 mm 0.01 in0.3 mm 1.72 in43.7 mm
05:02 PM 51.7°F10.9°C 49.2°F9.6°C 95% 2.0 mph NW3.2 kmh NW 5.0 mph8.0 kmh 29.61 in1002.7 mb 0.19 in4.8 mm 0.00 in0.0 mm 1.72 in43.7 mm
05:04 PM 51.7°F10.9°C 49.2°F9.6°C 95% 2.0 mph NW3.2 kmh NW 5.0 mph8.0 kmh 29.60 in1002.4 mb 0.16 in4.1 mm 0.00 in0.0 mm 1.73 in43.9 mm
05:06 PM 51.7°F10.9°C 49.2°F9.6°C 95% 2.0 mph NNW3.2 kmh NNW 5.0 mph8.0 kmh 29.61 in1002.7 mb 0.16 in4.1 mm 0.00 in0.0 mm 1.73 in43.9 mm
05:08 PM 51.7°F10.9°C 49.2°F9.6°C 95% 3.0 mph WNW4.8 kmh WNW 5.0 mph8.0 kmh 29.61 in1002.7 mb 0.11 in2.8 mm 0.00 in0.0 mm 1.73 in43.9 mm
05:10 PM 51.7°F10.9°C 49.2°F9.6°C 95% 1.0 mph WNW1.6 kmh WNW 5.0 mph8.0 kmh 29.61 in1002.7 mb 0.09 in2.3 mm 0.00 in0.0 mm 1.74 in44.2 mm
05:12 PM 51.7°F10.9°C 49.2°F9.6°C 95% 2.0 mph W3.2 kmh W 3.0 mph4.8 kmh 29.61 in1002.7 mb 0.22 in5.6 mm 3.90 in99.1 mm 1.74 in44.2 mm
05:14 PM 51.8°F11.0°C 49.3°F9.6°C 95% 1.0 mph W1.6 kmh W 4.0 mph6.4 kmh 29.62 in1003.0 mb 0.47 in11.9 mm 7.50 in190.5 mm 1.76 in44.7 mm
05:16 PM 51.8°F11.0°C 49.3°F9.6°C 95% 1.0 mph W1.6 kmh W 4.0 mph6.4 kmh 29.62 in1003.0 mb 0.60 in15.2 mm 3.90 in99.1 mm 1.78 in45.2 mm
05:18 PM 51.7°F10.9°C 49.2°F9.6°C 95% 3.0 mph W4.8 kmh W 4.0 mph6.4 kmh 29.61 in1002.7 mb 0.43 in10.9 mm 0.00 in0.0 mm 1.79 in45.5 mm
05:20 PM 51.7°F10.9°C 49.2°F9.6°C 95% 2.0 mph WNW3.2 kmh WNW 4.0 mph6.4 kmh 29.61 in1002.7 mb 0.31 in7.9 mm 0.00 in0.0 mm 1.80 in45.7 mm
05:22 PM 51.7°F10.9°C 49.2°F9.6°C 95% 2.0 mph NW3.2 kmh NW 4.0 mph6.4 kmh 29.61 in1002.7 mb 0.25 in6.4 mm 0.00 in0.0 mm 1.81 in46.0 mm
05:24 PM 51.7°F10.9°C 49.2°F9.6°C 95% 2.0 mph NW3.2 kmh NW 4.0 mph6.4 kmh 29.61 in1002.7 mb 0.23 in5.8 mm 0.00 in0.0 mm 1.82 in46.2 mm
05:26 PM 51.7°F10.9°C 49.5°F9.7°C 96% 3.0 mph NW4.8 kmh NW 4.0 mph6.4 kmh 29.61 in1002.7 mb 0.21 in5.3 mm 0.00 in0.0 mm 1.82 in46.2 mm
05:28 PM 51.7°F10.9°C 49.5°F9.7°C 96% 1.0 mph NW1.6 kmh NW 4.0 mph6.4 kmh 29.61 in1002.7 mb 0.13 in3.3 mm 0.00 in0.0 mm 1.82 in46.2 mm
05:30 PM 51.7°F10.9°C 49.5°F9.7°C 96% 1.0 mph NW1.6 kmh NW 4.0 mph6.4 kmh 29.61 in1002.7 mb 0.13 in3.3 mm 0.00 in0.0 mm 1.83 in46.5 mm
05:32 PM 51.7°F10.9°C 49.5°F9.7°C 96% Calm Calm 4.0 mph6.4 kmh 29.61 in1002.7 mb 0.13 in3.3 mm 0.00 in0.0 mm 1.83 in46.5 mm
05:34 PM 51.7°F10.9°C 49.5°F9.7°C 96% Calm Calm -- 29.61 in1002.7 mb 0.13 in3.3 mm 0.00 in0.0 mm 1.84 in46.7 mm
05:36 PM 51.7°F10.9°C 49.5°F9.7°C 96% Calm Calm -- 29.61 in1002.7 mb 0.13 in3.3 mm 0.00 in0.0 mm 1.84 in46.7 mm
05:38 PM 51.7°F10.9°C 49.5°F9.7°C 96% 1.0 mph NW1.6 kmh NW 2.0 mph3.2 kmh 29.61 in1002.7 mb 0.10 in2.5 mm 0.00 in0.0 mm 1.84 in46.7 mm
05:40 PM 51.7°F10.9°C 49.5°F9.7°C 96% Calm Calm 2.0 mph3.2 kmh 29.61 in1002.7 mb 0.08 in2.0 mm 0.00 in0.0 mm 1.85 in47.0 mm
05:42 PM 51.7°F10.9°C 49.5°F9.7°C 96% 3.0 mph N4.8 kmh N 4.0 mph6.4 kmh 29.60 in1002.4 mb 0.08 in2.0 mm 0.00 in0.0 mm 1.85 in47.0 mm
05:44 PM 51.7°F10.9°C 49.5°F9.7°C 96% 1.0 mph N1.6 kmh N 4.0 mph6.4 kmh 29.60 in1002.4 mb 0.08 in2.0 mm 0.00 in0.0 mm 1.85 in47.0 mm
05:46 PM 51.7°F10.9°C 49.5°F9.7°C 96% 2.0 mph NW3.2 kmh NW 4.0 mph6.4 kmh 29.60 in1002.4 mb 0.08 in2.0 mm 0.00 in0.0 mm 1.85 in47.0 mm
05:48 PM 51.7°F10.9°C 49.5°F9.7°C 96% 2.0 mph NW3.2 kmh NW 4.0 mph6.4 kmh 29.60 in1002.4 mb 0.07 in1.8 mm 0.00 in0.0 mm 1.85 in47.0 mm
05:50 PM 51.7°F10.9°C 49.5°F9.7°C 96% 1.0 mph NW1.6 kmh NW 4.0 mph6.4 kmh 29.60 in1002.4 mb 0.06 in1.5 mm 0.00 in0.0 mm 1.85 in47.0 mm
05:52 PM 51.8°F11.0°C 49.5°F9.7°C 96% Calm Calm 4.0 mph6.4 kmh 29.60 in1002.4 mb 0.05 in1.3 mm 0.00 in0.0 mm 1.85 in47.0 mm
05:54 PM 51.8°F11.0°C 49.5°F9.7°C 96% 2.0 mph NW3.2 kmh NW 4.0 mph6.4 kmh 29.61 in1002.7 mb 0.04 in1.0 mm 0.00 in0.0 mm 1.85 in47.0 mm
05:56 PM 51.8°F11.0°C 49.5°F9.7°C 96% 2.0 mph NNW3.2 kmh NNW 4.0 mph6.4 kmh 29.60 in1002.4 mb 0.04 in1.0 mm 0.00 in0.0 mm 1.86 in47.2 mm
05:58 PM 51.8°F11.0°C 49.5°F9.7°C 96% 2.0 mph NNW3.2 kmh NNW 4.0 mph6.4 kmh 29.60 in1002.4 mb 0.04 in1.0 mm 0.00 in0.0 mm 1.86 in47.2 mm
06:00 PM 51.8°F11.0°C 49.5°F9.7°C 96% Calm Calm 4.0 mph6.4 kmh 29.60 in1002.4 mb 0.10 in2.5 mm 0.06 in1.5 mm 1.86 in47.2 mm
06:02 PM 51.8°F11.0°C 49.5°F9.7°C 96% 1.0 mph NNW1.6 kmh NNW 3.0 mph4.8 kmh 29.60 in1002.4 mb 0.10 in2.5 mm 0.00 in0.0 mm 1.87 in47.5 mm
06:04 PM 51.8°F11.0°C 49.5°F9.7°C 96% 2.0 mph N3.2 kmh N 3.0 mph4.8 kmh 29.59 in1002.0 mb 0.10 in2.5 mm 0.00 in0.0 mm 1.87 in47.5 mm
06:06 PM 51.8°F11.0°C 49.5°F9.7°C 96% 2.0 mph NW3.2 kmh NW 4.0 mph6.4 kmh 29.60 in1002.4 mb 0.12 in3.0 mm 0.60 in15.2 mm 1.88 in47.8 mm
06:08 PM 51.7°F10.9°C 49.5°F9.7°C 96% Calm Calm 5.0 mph8.0 kmh 29.60 in1002.4 mb 0.12 in3.0 mm 0.00 in0.0 mm 1.88 in47.8 mm
06:10 PM 51.7°F10.9°C 49.5°F9.7°C 96% Calm Calm 5.0 mph8.0 kmh 29.61 in1002.7 mb 0.11 in2.8 mm 0.00 in0.0 mm 1.88 in47.8 mm
06:12 PM 51.8°F11.0°C 49.5°F9.7°C 96% 2.0 mph W3.2 kmh W 5.0 mph8.0 kmh 29.61 in1002.7 mb 0.08 in2.0 mm 0.00 in0.0 mm 1.88 in47.8 mm
06:14 PM 51.7°F10.9°C 49.5°F9.7°C 96% 2.0 mph NW3.2 kmh NW 7.0 mph11.3 kmh 29.61 in1002.7 mb 0.07 in1.8 mm 0.00 in0.0 mm 1.89 in48.0 mm
06:16 PM 51.7°F10.9°C 49.5°F9.7°C 96% 2.0 mph NW3.2 kmh NW 7.0 mph11.3 kmh 29.61 in1002.7 mb 0.07 in1.8 mm 0.00 in0.0 mm 1.89 in48.0 mm
06:18 PM 51.7°F10.9°C 49.5°F9.7°C 96% 4.0 mph NW6.4 kmh NW 7.0 mph11.3 kmh 29.60 in1002.4 mb 0.07 in1.8 mm 0.00 in0.0 mm 1.89 in48.0 mm
06:20 PM 51.7°F10.9°C 49.5°F9.7°C 96% 2.0 mph NW3.2 kmh NW 7.0 mph11.3 kmh 29.60 in1002.4 mb 0.12 in3.0 mm 1.50 in38.1 mm 1.90 in48.3 mm
06:22 PM 51.6°F10.9°C 49.4°F9.7°C 96% 3.0 mph NW4.8 kmh NW 7.0 mph11.3 kmh 29.59 in1002.0 mb 0.17 in4.3 mm 1.50 in38.1 mm 1.90 in48.3 mm
06:24 PM 51.6°F10.9°C 49.4°F9.7°C 96% 2.0 mph NW3.2 kmh NW 7.0 mph11.3 kmh 29.59 in1002.0 mb 0.17 in4.3 mm 0.00 in0.0 mm 1.91 in48.5 mm
06:26 PM 51.6°F10.9°C 49.4°F9.7°C 96% 3.0 mph N4.8 kmh N 7.0 mph11.3 kmh 29.59 in1002.0 mb 0.14 in3.6 mm 0.00 in0.0 mm 1.91 in48.5 mm
06:28 PM 51.5°F10.8°C 49.3°F9.6°C 96% 1.0 mph N1.6 kmh N 7.0 mph11.3 kmh 29.58 in1001.7 mb 0.10 in2.5 mm 0.00 in0.0 mm 1.91 in48.5 mm
06:30 PM 51.5°F10.8°C 49.3°F9.6°C 96% 2.0 mph 3.2 kmh 7.0 mph11.3 kmh 29.58 in1001.7 mb 0.07 in1.8 mm 0.00 in0.0 mm 1.91 in48.5 mm
06:32 PM 51.5°F10.8°C 49.3°F9.6°C 96% Calm Calm 7.0 mph11.3 kmh 29.59 in1002.0 mb 0.06 in1.5 mm 0.00 in0.0 mm 1.92 in48.8 mm
06:34 PM 51.5°F10.8°C 49.3°F9.6°C 96% 1.0 mph SE1.6 kmh SE 5.0 mph8.0 kmh 29.59 in1002.0 mb 0.06 in1.5 mm 0.00 in0.0 mm 1.92 in48.8 mm
06:36 PM 51.5°F10.8°C 49.3°F9.6°C 96% 1.0 mph SE1.6 kmh SE 5.0 mph8.0 kmh 29.59 in1002.0 mb 0.06 in1.5 mm 0.00 in0.0 mm 1.92 in48.8 mm
06:38 PM 51.4°F10.8°C 49.2°F9.6°C 96% Calm Calm 5.0 mph8.0 kmh 29.59 in1002.0 mb 0.06 in1.5 mm 0.00 in0.0 mm 1.92 in48.8 mm
06:40 PM 51.4°F10.8°C 49.2°F9.6°C 96% Calm Calm 5.0 mph8.0 kmh 29.59 in1002.0 mb 0.06 in1.5 mm 0.00 in0.0 mm 1.92 in48.8 mm
06:42 PM 51.4°F10.8°C 49.2°F9.6°C 96% Calm Calm 5.0 mph8.0 kmh 29.60 in1002.4 mb 0.05 in1.3 mm 0.00 in0.0 mm 1.92 in48.8 mm
06:44 PM 51.4°F10.8°C 49.2°F9.6°C 96% Calm Calm 3.0 mph4.8 kmh 29.60 in1002.4 mb 0.05 in1.3 mm 0.00 in0.0 mm 1.92 in48.8 mm
06:46 PM 51.4°F10.8°C 49.2°F9.6°C 96% Calm Calm -- 29.60 in1002.4 mb 0.04 in1.0 mm 0.00 in0.0 mm 1.92 in48.8 mm
06:48 PM 51.4°F10.8°C 49.2°F9.6°C 96% Calm Calm -- 29.59 in1002.0 mb 0.04 in1.0 mm 0.00 in0.0 mm 1.92 in48.8 mm
06:50 PM 51.4°F10.8°C 49.2°F9.6°C 96% Calm Calm -- 29.60 in1002.4 mb 0.00 in0.0 mm 0.00 in0.0 mm 1.92 in48.8 mm
06:52 PM 51.4°F10.8°C 49.2°F9.6°C 96% Calm Calm 1.0 mph1.6 kmh 29.60 in1002.4 mb 0.00 in0.0 mm 0.00 in0.0 mm 1.92 in48.8 mm
06:54 PM 51.4°F10.8°C 49.2°F9.6°C 96% Calm Calm -- 29.61 in1002.7 mb 0.00 in0.0 mm 0.00 in0.0 mm 1.92 in48.8 mm
06:56 PM 51.4°F10.8°C 49.2°F9.6°C 96% Calm Calm 1.0 mph1.6 kmh 29.61 in1002.7 mb 0.00 in0.0 mm 0.00 in0.0 mm 1.93 in49.0 mm
06:58 PM 51.4°F10.8°C 49.2°F9.6°C 96% Calm Calm -- 29.61 in1002.7 mb 0.00 in0.0 mm 0.00 in0.0 mm 1.93 in49.0 mm
07:00 PM 51.4°F10.8°C 49.2°F9.6°C 96% Calm Calm -- 29.62 in1003.0 mb 0.00 in0.0 mm 0.00 in0.0 mm 1.93 in49.0 mm
07:02 PM 51.5°F10.8°C 49.3°F9.6°C 96% Calm Calm -- 29.61 in1002.7 mb 0.00 in0.0 mm 0.00 in0.0 mm 1.93 in49.0 mm
07:04 PM 51.4°F10.8°C 49.2°F9.6°C 96% Calm Calm -- 29.61 in1002.7 mb 0.08 in2.0 mm 2.40 in61.0 mm 1.94 in49.3 mm
07:06 PM 51.4°F10.8°C 49.2°F9.6°C 96% Calm Calm -- 29.61 in1002.7 mb 0.08 in2.0 mm 0.00 in0.0 mm 1.94 in49.3 mm
07:08 PM 51.4°F10.8°C 49.2°F9.6°C 96% Calm Calm -- 29.61 in1002.7 mb 0.11 in2.8 mm 0.90 in22.9 mm 1.94 in49.3 mm
07:10 PM 51.4°F10.8°C 49.2°F9.6°C 96% Calm Calm -- 29.61 in1002.7 mb 0.11 in2.8 mm 0.00 in0.0 mm 1.95 in49.5 mm
07:12 PM 51.4°F10.8°C 49.2°F9.6°C 96% Calm Calm -- 29.61 in1002.7 mb 0.11 in2.8 mm 0.00 in0.0 mm 1.95 in49.5 mm
07:14 PM 51.4°F10.8°C 49.2°F9.6°C 96% Calm Calm -- 29.62 in1003.0 mb 0.12 in3.0 mm 0.30 in7.6 mm 1.96 in49.8 mm
07:16 PM 51.4°F10.8°C 49.2°F9.6°C 96% Calm Calm -- 29.63 in1003.4 mb 0.18 in4.6 mm 1.80 in45.7 mm 1.96 in49.8 mm
07:18 PM 51.4°F10.8°C 49.2°F9.6°C 96% Calm Calm -- 29.63 in1003.4 mb 0.18 in4.6 mm 0.00 in0.0 mm 1.97 in50.0 mm
07:20 PM 51.4°F10.8°C 49.2°F9.6°C 96% Calm Calm 1.0 mph1.6 kmh 29.63 in1003.4 mb 0.17 in4.3 mm 0.00 in0.0 mm 1.98 in50.3 mm
07:22 PM 51.4°F10.8°C 49.2°F9.6°C 96% Calm Calm -- 29.64 in1003.7 mb 0.17 in4.3 mm 0.00 in0.0 mm 1.98 in50.3 mm
07:24 PM 51.4°F10.8°C 49.2°F9.6°C 96% 2.0 mph WSW3.2 kmh WSW 2.0 mph3.2 kmh 29.63 in1003.4 mb 0.13 in3.3 mm 0.00 in0.0 mm 1.98 in50.3 mm
07:26 PM 51.4°F10.8°C 49.2°F9.6°C 96% Calm Calm 2.0 mph3.2 kmh 29.63 in1003.4 mb 0.12 in3.0 mm 0.00 in0.0 mm 1.99 in50.5 mm
07:28 PM 51.4°F10.8°C 49.2°F9.6°C 96% 1.0 mph W1.6 kmh W 2.0 mph3.2 kmh 29.63 in1003.4 mb 0.12 in3.0 mm 0.00 in0.0 mm 1.99 in50.5 mm
07:30 PM 51.4°F10.8°C 49.2°F9.6°C 96% 1.0 mph W1.6 kmh W 2.0 mph3.2 kmh 29.63 in1003.4 mb 0.10 in2.5 mm 0.00 in0.0 mm 1.99 in50.5 mm
07:32 PM 51.4°F10.8°C 49.2°F9.6°C 96% 1.0 mph W1.6 kmh W 3.0 mph4.8 kmh 29.64 in1003.7 mb 0.08 in2.0 mm 0.00 in0.0 mm 1.99 in50.5 mm
07:34 PM 51.3°F10.7°C 49.1°F9.5°C 96% 2.0 mph SE3.2 kmh SE 4.0 mph6.4 kmh 29.64 in1003.7 mb 0.08 in2.0 mm 0.00 in0.0 mm 2.00 in50.8 mm
07:36 PM 51.3°F10.7°C 49.1°F9.5°C 96% 1.0 mph WSW1.6 kmh WSW 4.0 mph6.4 kmh 29.64 in1003.7 mb 0.22 in5.6 mm 4.20 in106.7 mm 2.01 in51.1 mm
07:38 PM 51.3°F10.7°C 49.1°F9.5°C 96% 2.0 mph W3.2 kmh W 4.0 mph6.4 kmh 29.64 in1003.7 mb 0.26 in6.6 mm 1.20 in30.5 mm 2.02 in51.3 mm
07:40 PM 51.3°F10.7°C 49.1°F9.5°C 96% 3.0 mph WSW4.8 kmh WSW 4.0 mph6.4 kmh 29.65 in1004.1 mb 0.20 in5.1 mm 0.00 in0.0 mm 2.02 in51.3 mm
07:42 PM 51.2°F10.7°C 49.0°F9.4°C 96% 2.0 mph WNW3.2 kmh WNW 7.0 mph11.3 kmh 29.64 in1003.7 mb 0.15 in3.8 mm 0.00 in0.0 mm 2.03 in51.6 mm
07:44 PM 51.2°F10.7°C 49.0°F9.4°C 96% 2.0 mph WSW3.2 kmh WSW 7.0 mph11.3 kmh 29.64 in1003.7 mb 0.15 in3.8 mm 0.00 in0.0 mm 2.03 in51.6 mm
07:46 PM 51.2°F10.7°C 49.0°F9.4°C 96% 3.0 mph W4.8 kmh W 7.0 mph11.3 kmh 29.64 in1003.7 mb 0.12 in3.0 mm 0.00 in0.0 mm 2.03 in51.6 mm
07:48 PM 51.2°F10.7°C 49.0°F9.4°C 96% 1.0 mph SW1.6 kmh SW 7.0 mph11.3 kmh 29.64 in1003.7 mb 0.10 in2.5 mm 0.00 in0.0 mm 2.04 in51.8 mm
07:50 PM 51.1°F10.6°C 48.9°F9.4°C 96% 2.0 mph SW3.2 kmh SW 7.0 mph11.3 kmh 29.64 in1003.7 mb 0.10 in2.5 mm 0.00 in0.0 mm 2.04 in51.8 mm
07:52 PM 51.0°F10.6°C 48.8°F9.3°C 96% 2.0 mph W3.2 kmh W 7.0 mph11.3 kmh 29.65 in1004.1 mb 0.15 in3.8 mm 1.50 in38.1 mm 2.05 in52.1 mm
07:54 PM 51.0°F10.6°C 48.8°F9.3°C 96% 1.0 mph W1.6 kmh W 7.0 mph11.3 kmh 29.65 in1004.1 mb 0.15 in3.8 mm 0.00 in0.0 mm 2.05 in52.1 mm
07:56 PM 51.0°F10.6°C 48.8°F9.3°C 96% Calm Calm 7.0 mph11.3 kmh 29.65 in1004.1 mb 0.13 in3.3 mm 0.00 in0.0 mm 2.05 in52.1 mm
07:58 PM 50.9°F10.5°C 48.7°F9.3°C 96% 2.0 mph W3.2 kmh W 7.0 mph11.3 kmh 29.65 in1004.1 mb 0.12 in3.0 mm 0.00 in0.0 mm 2.06 in52.3 mm
08:00 PM 50.9°F10.5°C 48.7°F9.3°C 96% 1.0 mph SW1.6 kmh SW 7.0 mph11.3 kmh 29.65 in1004.1 mb 0.12 in3.0 mm 0.00 in0.0 mm 2.06 in52.3 mm
08:02 PM 50.9°F10.5°C 48.7°F9.3°C 96% 3.0 mph W4.8 kmh W 4.0 mph6.4 kmh 29.66 in1004.4 mb 0.13 in3.3 mm 0.30 in7.6 mm 2.07 in52.6 mm
08:04 PM 50.8°F10.4°C 48.6°F9.2°C 96% 2.0 mph SW3.2 kmh SW 5.0 mph8.0 kmh 29.66 in1004.4 mb 0.19 in4.8 mm 1.80 in45.7 mm 2.07 in52.6 mm
08:06 PM 50.8°F10.4°C 48.6°F9.2°C 96% 1.0 mph WSW1.6 kmh WSW 5.0 mph8.0 kmh 29.65 in1004.1 mb 0.19 in4.8 mm 0.00 in0.0 mm 2.08 in52.8 mm
08:08 PM 50.8°F10.4°C 48.6°F9.2°C 96% 4.0 mph WSW6.4 kmh WSW 5.0 mph8.0 kmh 29.65 in1004.1 mb 0.25 in6.4 mm 1.80 in45.7 mm 2.09 in53.1 mm
08:10 PM 50.8°F10.4°C 48.6°F9.2°C 96% 2.0 mph W3.2 kmh W 5.0 mph8.0 kmh 29.66 in1004.4 mb 0.20 in5.1 mm 0.00 in0.0 mm 2.09 in53.1 mm
08:12 PM 50.7°F10.4°C 48.5°F9.2°C 96% 1.0 mph W1.6 kmh W 6.0 mph9.7 kmh 29.65 in1004.1 mb 0.20 in5.1 mm 0.00 in0.0 mm 2.10 in53.3 mm
08:14 PM 50.7°F10.4°C 48.5°F9.2°C 96% 3.0 mph W4.8 kmh W 7.0 mph11.3 kmh 29.65 in1004.1 mb 0.22 in5.6 mm 0.60 in15.2 mm 2.11 in53.6 mm
08:16 PM 50.6°F10.3°C 48.4°F9.1°C 96% 2.0 mph SW3.2 kmh SW 7.0 mph11.3 kmh 29.65 in1004.1 mb 0.23 in5.8 mm 0.30 in7.6 mm 2.12 in53.8 mm
08:18 PM 50.6°F10.3°C 48.4°F9.1°C 96% Calm Calm 7.0 mph11.3 kmh 29.65 in1004.1 mb 0.19 in4.8 mm 0.00 in0.0 mm 2.12 in53.8 mm
08:20 PM 50.6°F10.3°C 48.4°F9.1°C 96% 2.0 mph W3.2 kmh W 3.0 mph4.8 kmh 29.65 in1004.1 mb 0.12 in3.0 mm 0.00 in0.0 mm 2.12 in53.8 mm
08:22 PM 50.5°F10.3°C 48.3°F9.1°C 96% 1.0 mph WNW1.6 kmh WNW 4.0 mph6.4 kmh 29.65 in1004.1 mb 0.12 in3.0 mm 0.00 in0.0 mm 2.13 in54.1 mm
08:24 PM 50.5°F10.3°C 48.3°F9.1°C 96% 2.0 mph SW3.2 kmh SW 5.0 mph8.0 kmh 29.65 in1004.1 mb 0.12 in3.0 mm 0.00 in0.0 mm 2.13 in54.1 mm
08:26 PM 50.5°F10.3°C 48.3°F9.1°C 96% Calm Calm 5.0 mph8.0 kmh 29.65 in1004.1 mb 0.10 in2.5 mm 0.00 in0.0 mm 2.13 in54.1 mm
08:28 PM 50.4°F10.2°C 48.2°F9.0°C 96% Calm Calm 5.0 mph8.0 kmh 29.65 in1004.1 mb 0.07 in1.8 mm 0.00 in0.0 mm 2.13 in54.1 mm
08:30 PM 50.4°F10.2°C 48.2°F9.0°C 96% 2.0 mph WSW3.2 kmh WSW 3.0 mph4.8 kmh 29.66 in1004.4 mb 0.06 in1.5 mm 0.00 in0.0 mm 2.13 in54.1 mm
08:32 PM 50.4°F10.2°C 48.2°F9.0°C 96% Calm Calm -- 29.66 in1004.4 mb 0.05 in1.3 mm 0.00 in0.0 mm 2.13 in54.1 mm
08:34 PM 50.4°F10.2°C 48.2°F9.0°C 96% Calm Calm -- 29.66 in1004.4 mb 0.04 in1.0 mm 0.00 in0.0 mm 2.13 in54.1 mm
08:36 PM 50.4°F10.2°C 48.2°F9.0°C 96% Calm Calm 2.0 mph3.2 kmh 29.66 in1004.4 mb 0.04 in1.0 mm 0.00 in0.0 mm 2.13 in54.1 mm
08:38 PM 50.4°F10.2°C 48.2°F9.0°C 96% 1.0 mph WSW1.6 kmh WSW 2.0 mph3.2 kmh 29.66 in1004.4 mb 0.00 in0.0 mm 0.00 in0.0 mm 2.13 in54.1 mm
08:40 PM 50.4°F10.2°C 48.2°F9.0°C 96% Calm Calm -- 29.66 in1004.4 mb 0.00 in0.0 mm 0.00 in0.0 mm 2.13 in54.1 mm
08:42 PM 50.3°F10.2°C 48.1°F8.9°C 96% Calm Calm -- 29.66 in1004.4 mb 0.00 in0.0 mm 0.00 in0.0 mm 2.14 in54.4 mm
08:44 PM 50.3°F10.2°C 48.1°F8.9°C 96% Calm Calm -- 29.65 in1004.1 mb 0.00 in0.0 mm 0.00 in0.0 mm 2.14 in54.4 mm
08:46 PM 50.3°F10.2°C 48.1°F8.9°C 96% Calm Calm 1.0 mph1.6 kmh 29.65 in1004.1 mb 0.00 in0.0 mm 0.00 in0.0 mm 2.14 in54.4 mm
08:48 PM 50.3°F10.2°C 48.1°F8.9°C 96% Calm Calm -- 29.66 in1004.4 mb 0.00 in0.0 mm 0.00 in0.0 mm 2.14 in54.4 mm
08:50 PM 50.3°F10.2°C 48.1°F8.9°C 96% Calm Calm -- 29.66 in1004.4 mb 0.07 in1.8 mm 2.10 in53.3 mm 2.15 in54.6 mm
08:52 PM 50.3°F10.2°C 48.1°F8.9°C 96% 1.0 mph WSW1.6 kmh WSW 2.0 mph3.2 kmh 29.66 in1004.4 mb 0.07 in1.8 mm 0.00 in0.0 mm 2.15 in54.6 mm
08:54 PM 50.3°F10.2°C 48.1°F8.9°C 96% 1.0 mph WNW1.6 kmh WNW 3.0 mph4.8 kmh 29.66 in1004.4 mb 0.07 in1.8 mm 0.00 in0.0 mm 2.15 in54.6 mm
08:56 PM 50.3°F10.2°C 48.1°F8.9°C 96% 3.0 mph WNW4.8 kmh WNW 3.0 mph4.8 kmh 29.65 in1004.1 mb 0.10 in2.5 mm 0.90 in22.9 mm 2.16 in54.9 mm
08:58 PM 50.3°F10.2°C 48.1°F8.9°C 96% 2.0 mph NW3.2 kmh NW 5.0 mph8.0 kmh 29.65 in1004.1 mb 0.10 in2.5 mm 0.00 in0.0 mm 2.16 in54.9 mm
09:00 PM 50.2°F10.1°C 48.0°F8.9°C 96% 2.0 mph NW3.2 kmh NW 5.0 mph8.0 kmh 29.65 in1004.1 mb 0.10 in2.5 mm 0.00 in0.0 mm 2.16 in54.9 mm
09:02 PM 50.2°F10.1°C 48.0°F8.9°C 96% 2.0 mph NW3.2 kmh NW 5.0 mph8.0 kmh 29.65 in1004.1 mb 0.09 in2.3 mm 0.00 in0.0 mm 2.16 in54.9 mm
09:04 PM 50.1°F10.1°C 47.9°F8.8°C 96% 2.0 mph WNW3.2 kmh WNW 5.0 mph8.0 kmh 29.65 in1004.1 mb 0.07 in1.8 mm 0.00 in0.0 mm 2.16 in54.9 mm
09:06 PM 50.1°F10.1°C 47.9°F8.8°C 96% 3.0 mph NW4.8 kmh NW 5.0 mph8.0 kmh 29.65 in1004.1 mb 0.06 in1.5 mm 0.00 in0.0 mm 2.16 in54.9 mm
09:08 PM 50.0°F10.0°C 47.8°F8.8°C 96% 3.0 mph NW4.8 kmh NW 7.0 mph11.3 kmh 29.65 in1004.1 mb 0.05 in1.3 mm 0.00 in0.0 mm 2.17 in55.1 mm
09:10 PM 49.9°F9.9°C 47.7°F8.7°C 96% 3.0 mph NW4.8 kmh NW 10.0 mph16.1 kmh 29.64 in1003.7 mb 0.05 in1.3 mm 0.00 in0.0 mm 2.17 in55.1 mm
09:12 PM 49.8°F9.9°C 47.6°F8.7°C 96% 4.0 mph NNW6.4 kmh NNW 10.0 mph16.1 kmh 29.63 in1003.4 mb 0.05 in1.3 mm 0.00 in0.0 mm 2.17 in55.1 mm
09:14 PM 49.7°F9.8°C 47.5°F8.6°C 96% 2.0 mph N3.2 kmh N 10.0 mph16.1 kmh 29.63 in1003.4 mb 0.05 in1.3 mm 0.00 in0.0 mm 2.17 in55.1 mm
09:16 PM 49.6°F9.8°C 47.4°F8.6°C 96% 4.0 mph NNE6.4 kmh NNE 10.0 mph16.1 kmh 29.62 in1003.0 mb 0.05 in1.3 mm 0.00 in0.0 mm 2.17 in55.1 mm
09:18 PM 49.6°F9.8°C 47.4°F8.6°C 96% 1.0 mph NE1.6 kmh NE 10.0 mph16.1 kmh 29.62 in1003.0 mb 0.07 in1.8 mm 0.60 in15.2 mm 2.18 in55.4 mm
09:20 PM 49.5°F9.7°C 47.3°F8.5°C 96% 2.0 mph NNW3.2 kmh NNW 10.0 mph16.1 kmh 29.63 in1003.4 mb 0.07 in1.8 mm 0.00 in0.0 mm 2.18 in55.4 mm
09:22 PM 49.5°F9.7°C 47.3°F8.5°C 96% 2.0 mph NW3.2 kmh NW 10.0 mph16.1 kmh 29.64 in1003.7 mb 0.07 in1.8 mm 0.00 in0.0 mm 2.18 in55.4 mm
09:24 PM 49.5°F9.7°C 47.3°F8.5°C 96% 3.0 mph NW4.8 kmh NW 10.0 mph16.1 kmh 29.65 in1004.1 mb 0.07 in1.8 mm 0.00 in0.0 mm 2.18 in55.4 mm
09:26 PM 49.5°F9.7°C 47.3°F8.5°C 96% 3.0 mph WNW4.8 kmh WNW 10.0 mph16.1 kmh 29.66 in1004.4 mb 0.06 in1.5 mm 0.00 in0.0 mm 2.18 in55.4 mm
09:28 PM 49.5°F9.7°C 47.3°F8.5°C 96% 4.0 mph W6.4 kmh W 10.0 mph16.1 kmh 29.66 in1004.4 mb 0.05 in1.3 mm 0.00 in0.0 mm 2.18 in55.4 mm
09:30 PM 49.5°F9.7°C 47.3°F8.5°C 96% 4.0 mph NW6.4 kmh NW 7.0 mph11.3 kmh 29.66 in1004.4 mb 0.04 in1.0 mm 0.00 in0.0 mm 2.18 in55.4 mm
09:32 PM 49.4°F9.7°C 47.2°F8.4°C 96% 4.0 mph W6.4 kmh W 13.0 mph20.9 kmh 29.66 in1004.4 mb 0.04 in1.0 mm 0.00 in0.0 mm 2.18 in55.4 mm
09:34 PM 49.2°F9.6°C 47.0°F8.3°C 96% 3.0 mph N4.8 kmh N 13.0 mph20.9 kmh 29.66 in1004.4 mb 0.00 in0.0 mm 0.00 in0.0 mm 2.18 in55.4 mm
09:36 PM 48.9°F9.4°C 46.4°F8.0°C 95% 12.0 mph NW19.3 kmh NW 14.0 mph22.5 kmh 29.64 in1003.7 mb 0.00 in0.0 mm 0.00 in0.0 mm 2.18 in55.4 mm
09:38 PM 48.3°F9.1°C 45.8°F7.7°C 95% 3.0 mph NNW4.8 kmh NNW 16.0 mph25.7 kmh 29.64 in1003.7 mb 0.00 in0.0 mm 0.00 in0.0 mm 2.19 in55.6 mm
09:40 PM 47.9°F8.8°C 45.1°F7.3°C 94% 10.0 mph WNW16.1 kmh WNW 16.0 mph25.7 kmh 29.64 in1003.7 mb 0.00 in0.0 mm 0.00 in0.0 mm 2.19 in55.6 mm
09:42 PM 47.5°F8.6°C 44.7°F7.1°C 94% 5.0 mph N8.0 kmh N 16.0 mph25.7 kmh 29.65 in1004.1 mb 0.00 in0.0 mm 0.00 in0.0 mm 2.19 in55.6 mm
09:44 PM 47.2°F8.4°C 44.4°F6.9°C 94% 5.0 mph N8.0 kmh N 16.0 mph25.7 kmh 29.65 in1004.1 mb 0.00 in0.0 mm 0.00 in0.0 mm 2.19 in55.6 mm
09:46 PM 46.9°F8.3°C 44.1°F6.7°C 94% 4.0 mph NW6.4 kmh NW 16.0 mph25.7 kmh 29.65 in1004.1 mb 0.00 in0.0 mm 0.00 in0.0 mm 2.19 in55.6 mm
09:48 PM 46.8°F8.2°C 44.0°F6.7°C 94% 6.0 mph NNW9.7 kmh NNW 16.0 mph25.7 kmh 29.66 in1004.4 mb 0.00 in0.0 mm 0.00 in0.0 mm 2.19 in55.6 mm
09:50 PM 46.6°F8.1°C 43.8°F6.6°C 94% 3.0 mph NNW4.8 kmh NNW 16.0 mph25.7 kmh 29.66 in1004.4 mb 0.00 in0.0 mm 0.00 in0.0 mm 2.19 in55.6 mm
09:52 PM 46.5°F8.1°C 43.7°F6.5°C 94% 3.0 mph NNW4.8 kmh NNW 16.0 mph25.7 kmh 29.65 in1004.1 mb 0.00 in0.0 mm 0.00 in0.0 mm 2.19 in55.6 mm
09:54 PM 46.4°F8.0°C 43.6°F6.4°C 94% 4.0 mph NW6.4 kmh NW 16.0 mph25.7 kmh 29.65 in1004.1 mb 0.00 in0.0 mm 0.00 in0.0 mm 2.19 in55.6 mm
09:56 PM 46.3°F7.9°C 43.5°F6.4°C 94% 2.0 mph WNW3.2 kmh WNW 16.0 mph25.7 kmh 29.65 in1004.1 mb 0.00 in0.0 mm 0.00 in0.0 mm 2.20 in55.9 mm
09:58 PM 46.2°F7.9°C 43.4°F6.3°C 94% 3.0 mph NNW4.8 kmh NNW 10.0 mph16.1 kmh 29.65 in1004.1 mb 0.00 in0.0 mm 0.00 in0.0 mm 2.20 in55.9 mm
10:00 PM 46.1°F7.8°C 43.3°F6.3°C 94% 4.0 mph NNE6.4 kmh NNE 10.0 mph16.1 kmh 29.64 in1003.7 mb 0.00 in0.0 mm 0.00 in0.0 mm 2.20 in55.9 mm
10:02 PM 46.0°F7.8°C 43.2°F6.2°C 94% 3.0 mph 4.8 kmh 10.0 mph16.1 kmh 29.64 in1003.7 mb 0.00 in0.0 mm 0.00 in0.0 mm 2.20 in55.9 mm
10:04 PM 46.0°F7.8°C 43.2°F6.2°C 94% 5.0 mph NNW8.0 kmh NNW 10.0 mph16.1 kmh 29.64 in1003.7 mb 0.00 in0.0 mm 0.00 in0.0 mm 2.20 in55.9 mm
10:06 PM 45.9°F7.7°C 43.1°F6.2°C 94% 7.0 mph NW11.3 kmh NW 10.0 mph16.1 kmh 29.64 in1003.7 mb 0.00 in0.0 mm 0.00 in0.0 mm 2.20 in55.9 mm
10:08 PM 45.9°F7.7°C 43.1°F6.2°C 94% 4.0 mph NW6.4 kmh NW 11.0 mph17.7 kmh 29.65 in1004.1 mb 0.00 in0.0 mm 0.00 in0.0 mm 2.20 in55.9 mm
10:10 PM 45.9°F7.7°C 43.1°F6.2°C 94% 4.0 mph NW6.4 kmh NW 11.0 mph17.7 kmh 29.66 in1004.4 mb 0.00 in0.0 mm 0.00 in0.0 mm 2.20 in55.9 mm
10:12 PM 45.9°F7.7°C 43.4°F6.3°C 95% 4.0 mph NNW6.4 kmh NNW 11.0 mph17.7 kmh 29.65 in1004.1 mb 0.00 in0.0 mm 0.00 in0.0 mm 2.20 in55.9 mm
10:14 PM 45.8°F7.7°C 43.3°F6.3°C 95% 3.0 mph NNW4.8 kmh NNW 11.0 mph17.7 kmh 29.66 in1004.4 mb 0.00 in0.0 mm 0.00 in0.0 mm 2.21 in56.1 mm
10:16 PM 45.8°F7.7°C 43.3°F6.3°C 95% 4.0 mph WNW6.4 kmh WNW 11.0 mph17.7 kmh 29.65 in1004.1 mb 0.00 in0.0 mm 0.00 in0.0 mm 2.21 in56.1 mm
10:18 PM 45.7°F7.6°C 42.9°F6.1°C 94% 4.0 mph NW6.4 kmh NW 11.0 mph17.7 kmh 29.65 in1004.1 mb 0.00 in0.0 mm 0.00 in0.0 mm 2.21 in56.1 mm
10:20 PM 45.7°F7.6°C 42.9°F6.1°C 94% 6.0 mph NW9.7 kmh NW 11.0 mph17.7 kmh 29.64 in1003.7 mb 0.00 in0.0 mm 0.00 in0.0 mm 2.21 in56.1 mm
10:22 PM 45.6°F7.6°C 42.8°F6.0°C 94% 4.0 mph NNW6.4 kmh NNW 11.0 mph17.7 kmh 29.64 in1003.7 mb 0.00 in0.0 mm 0.00 in0.0 mm 2.21 in56.1 mm
10:24 PM 45.6°F7.6°C 42.8°F6.0°C 94% 3.0 mph SW4.8 kmh SW 11.0 mph17.7 kmh 29.66 in1004.4 mb 0.00 in0.0 mm 0.00 in0.0 mm 2.21 in56.1 mm
10:26 PM 45.6°F7.6°C 42.8°F6.0°C 94% 4.0 mph NW6.4 kmh NW 11.0 mph17.7 kmh 29.66 in1004.4 mb 0.00 in0.0 mm 0.00 in0.0 mm 2.21 in56.1 mm
10:28 PM 45.6°F7.6°C 43.1°F6.2°C 95% 4.0 mph NW6.4 kmh NW 11.0 mph17.7 kmh 29.66 in1004.4 mb 0.00 in0.0 mm 0.00 in0.0 mm 2.21 in56.1 mm
10:30 PM 45.5°F7.5°C 43.0°F6.1°C 95% 3.0 mph NW4.8 kmh NW 11.0 mph17.7 kmh 29.66 in1004.4 mb 0.00 in0.0 mm 0.00 in0.0 mm 2.21 in56.1 mm
10:32 PM 45.5°F7.5°C 43.0°F6.1°C 95% 3.0 mph NW4.8 kmh NW 11.0 mph17.7 kmh 29.66 in1004.4 mb 0.00 in0.0 mm 0.00 in0.0 mm 2.21 in56.1 mm
10:34 PM 45.4°F7.4°C 42.9°F6.1°C 95% 5.0 mph NW8.0 kmh NW 11.0 mph17.7 kmh 29.65 in1004.1 mb 0.00 in0.0 mm 0.00 in0.0 mm 2.21 in56.1 mm
10:36 PM 45.4°F7.4°C 42.9°F6.1°C 95% 5.0 mph NW8.0 kmh NW 11.0 mph17.7 kmh 29.64 in1003.7 mb 0.00 in0.0 mm 0.00 in0.0 mm 2.21 in56.1 mm
10:38 PM 45.3°F7.4°C 42.8°F6.0°C 95% 3.0 mph NW4.8 kmh NW 11.0 mph17.7 kmh 29.65 in1004.1 mb 0.00 in0.0 mm 0.00 in0.0 mm 2.21 in56.1 mm
10:40 PM 45.3°F7.4°C 42.8°F6.0°C 95% 4.0 mph N6.4 kmh N 11.0 mph17.7 kmh 29.65 in1004.1 mb 0.00 in0.0 mm 0.00 in0.0 mm 2.21 in56.1 mm
10:42 PM 45.2°F7.3°C 42.7°F5.9°C 95% 9.0 mph NW14.5 kmh NW 11.0 mph17.7 kmh 29.64 in1003.7 mb 0.00 in0.0 mm 0.00 in0.0 mm 2.21 in56.1 mm
10:44 PM 45.1°F7.3°C 42.3°F5.7°C 94% 6.0 mph NW9.7 kmh NW 10.0 mph16.1 kmh 29.63 in1003.4 mb 0.00 in0.0 mm 0.00 in0.0 mm 2.21 in56.1 mm
10:46 PM 45.1°F7.3°C 42.3°F5.7°C 94% 7.0 mph N11.3 kmh N 13.0 mph20.9 kmh 29.62 in1003.0 mb 0.00 in0.0 mm 0.00 in0.0 mm 2.21 in56.1 mm
10:48 PM 45.0°F7.2°C 42.2°F5.7°C 94% 10.0 mph NW16.1 kmh NW 13.0 mph20.9 kmh 29.63 in1003.4 mb 0.00 in0.0 mm 0.00 in0.0 mm 2.21 in56.1 mm
10:50 PM 45.0°F7.2°C 42.2°F5.7°C 94% 5.0 mph NNW8.0 kmh NNW 13.0 mph20.9 kmh 29.63 in1003.4 mb 0.00 in0.0 mm 0.00 in0.0 mm 2.21 in56.1 mm
10:52 PM 45.0°F7.2°C 42.2°F5.7°C 94% 6.0 mph NW9.7 kmh NW 13.0 mph20.9 kmh 29.63 in1003.4 mb 0.00 in0.0 mm 0.00 in0.0 mm 2.21 in56.1 mm
10:54 PM 44.9°F7.2°C 42.1°F5.6°C 94% 4.0 mph NW6.4 kmh NW 13.0 mph20.9 kmh 29.64 in1003.7 mb 0.00 in0.0 mm 0.00 in0.0 mm 2.21 in56.1 mm
10:56 PM 44.9°F7.2°C 42.1°F5.6°C 94% 7.0 mph NW11.3 kmh NW 13.0 mph20.9 kmh 29.64 in1003.7 mb 0.00 in0.0 mm 0.00 in0.0 mm 2.21 in56.1 mm
10:58 PM 45.0°F7.2°C 42.2°F5.7°C 94% 6.0 mph NW9.7 kmh NW 13.0 mph20.9 kmh 29.64 in1003.7 mb 0.00 in0.0 mm 0.00 in0.0 mm 2.21 in56.1 mm
11:00 PM 44.9°F7.2°C 42.1°F5.6°C 94% 7.0 mph NW11.3 kmh NW 13.0 mph20.9 kmh 29.64 in1003.7 mb 0.00 in0.0 mm 0.00 in0.0 mm 2.21 in56.1 mm
11:02 PM 44.9°F7.2°C 42.1°F5.6°C 94% 4.0 mph NW6.4 kmh NW 13.0 mph20.9 kmh 29.64 in1003.7 mb 0.00 in0.0 mm 0.00 in0.0 mm 2.21 in56.1 mm
11:04 PM 44.9°F7.2°C 42.1°F5.6°C 94% 4.0 mph NNW6.4 kmh NNW 13.0 mph20.9 kmh 29.65 in1004.1 mb 0.00 in0.0 mm 0.00 in0.0 mm 2.21 in56.1 mm
11:06 PM 44.9°F7.2°C 42.1°F5.6°C 94% 4.0 mph WNW6.4 kmh WNW 10.0 mph16.1 kmh 29.64 in1003.7 mb 0.00 in0.0 mm 0.00 in0.0 mm 2.21 in56.1 mm
11:08 PM 44.9°F7.2°C 42.1°F5.6°C 94% 7.0 mph NW11.3 kmh NW 10.0 mph16.1 kmh 29.65 in1004.1 mb 0.00 in0.0 mm 0.00 in0.0 mm 2.21 in56.1 mm
11:10 PM 44.9°F7.2°C 42.1°F5.6°C 94% 4.0 mph NW6.4 kmh NW 10.0 mph16.1 kmh 29.64 in1003.7 mb 0.00 in0.0 mm 0.00 in0.0 mm 2.21 in56.1 mm
11:12 PM 44.9°F7.2°C 42.1°F5.6°C 94% 3.0 mph NNW4.8 kmh NNW 10.0 mph16.1 kmh 29.64 in1003.7 mb 0.00 in0.0 mm 0.00 in0.0 mm 2.21 in56.1 mm
11:14 PM 44.9°F7.2°C 42.1°F5.6°C 94% 3.0 mph NW4.8 kmh NW 10.0 mph16.1 kmh 29.65 in1004.1 mb 0.00 in0.0 mm 0.00 in0.0 mm 2.21 in56.1 mm
11:16 PM 44.9°F7.2°C 42.1°F5.6°C 94% 4.0 mph NW6.4 kmh NW 9.0 mph14.5 kmh 29.65 in1004.1 mb 0.00 in0.0 mm 0.00 in0.0 mm 2.21 in56.1 mm
11:18 PM 44.9°F7.2°C 42.1°F5.6°C 94% 3.0 mph NW4.8 kmh NW 9.0 mph14.5 kmh 29.65 in1004.1 mb 0.00 in0.0 mm 0.00 in0.0 mm 2.21 in56.1 mm
11:20 PM 44.9°F7.2°C 42.1°F5.6°C 94% 3.0 mph NNW4.8 kmh NNW 9.0 mph14.5 kmh 29.66 in1004.4 mb 0.00 in0.0 mm 0.00 in0.0 mm 2.21 in56.1 mm
11:22 PM 44.9°F7.2°C 42.1°F5.6°C 94% 2.0 mph NW3.2 kmh NW 9.0 mph14.5 kmh 29.66 in1004.4 mb 0.00 in0.0 mm 0.00 in0.0 mm 2.21 in56.1 mm
11:24 PM 44.9°F7.2°C 42.1°F5.6°C 94% 2.0 mph NW3.2 kmh NW 9.0 mph14.5 kmh 29.66 in1004.4 mb 0.00 in0.0 mm 0.00 in0.0 mm 2.21 in56.1 mm
11:26 PM 44.9°F7.2°C 42.1°F5.6°C 94% 3.0 mph WNW4.8 kmh WNW 7.0 mph11.3 kmh 29.67 in1004.7 mb 0.00 in0.0 mm 0.00 in0.0 mm 2.21 in56.1 mm
11:28 PM 44.9°F7.2°C 42.1°F5.6°C 94% 5.0 mph WNW8.0 kmh WNW 8.0 mph12.9 kmh 29.67 in1004.7 mb 0.00 in0.0 mm 0.00 in0.0 mm 2.21 in56.1 mm
11:30 PM 44.8°F7.1°C 42.0°F5.6°C 94% 1.0 mph W1.6 kmh W 11.0 mph17.7 kmh 29.67 in1004.7 mb 0.00 in0.0 mm 0.00 in0.0 mm 2.21 in56.1 mm
11:32 PM 44.8°F7.1°C 42.0°F5.6°C 94% 2.0 mph NW3.2 kmh NW 11.0 mph17.7 kmh 29.67 in1004.7 mb 0.00 in0.0 mm 0.00 in0.0 mm 2.21 in56.1 mm
11:34 PM 44.8°F7.1°C 42.0°F5.6°C 94% 1.0 mph WNW1.6 kmh WNW 11.0 mph17.7 kmh 29.67 in1004.7 mb 0.00 in0.0 mm 0.00 in0.0 mm 2.21 in56.1 mm
11:36 PM 44.8°F7.1°C 42.0°F5.6°C 94% 2.0 mph NW3.2 kmh NW 11.0 mph17.7 kmh 29.67 in1004.7 mb 0.00 in0.0 mm 0.00 in0.0 mm 2.21 in56.1 mm
11:38 PM 44.8°F7.1°C 42.0°F5.6°C 94% 2.0 mph 3.2 kmh 11.0 mph17.7 kmh 29.66 in1004.4 mb 0.00 in0.0 mm 0.00 in0.0 mm 2.21 in56.1 mm
11:40 PM 44.8°F7.1°C 42.0°F5.6°C 94% 2.0 mph WNW3.2 kmh WNW 11.0 mph17.7 kmh 29.66 in1004.4 mb 0.00 in0.0 mm 0.00 in0.0 mm 2.21 in56.1 mm
11:42 PM 44.7°F7.1°C 41.9°F5.5°C 94% 3.0 mph WNW4.8 kmh WNW 11.0 mph17.7 kmh 29.66 in1004.4 mb 0.00 in0.0 mm 0.00 in0.0 mm 2.21 in56.1 mm
11:44 PM 44.7°F7.1°C 41.9°F5.5°C 94% 5.0 mph NW8.0 kmh NW 11.0 mph17.7 kmh 29.66 in1004.4 mb 0.00 in0.0 mm 0.00 in0.0 mm 2.21 in56.1 mm
11:46 PM 44.7°F7.1°C 41.9°F5.5°C 94% 3.0 mph NNW4.8 kmh NNW 11.0 mph17.7 kmh 29.66 in1004.4 mb 0.00 in0.0 mm 0.00 in0.0 mm 2.21 in56.1 mm
11:48 PM 44.7°F7.1°C 41.9°F5.5°C 94% 4.0 mph NW6.4 kmh NW 11.0 mph17.7 kmh 29.66 in1004.4 mb 0.00 in0.0 mm 0.00 in0.0 mm 2.21 in56.1 mm
11:50 PM 44.6°F7.0°C 41.9°F5.5°C 94% 2.0 mph NW3.2 kmh NW 7.0 mph11.3 kmh 29.66 in1004.4 mb 0.00 in0.0 mm 0.00 in0.0 mm 2.21 in56.1 mm
11:52 PM 44.6°F7.0°C 41.9°F5.5°C 94% 3.0 mph NNW4.8 kmh NNW 7.0 mph11.3 kmh 29.67 in1004.7 mb 0.00 in0.0 mm 0.00 in0.0 mm 2.21 in56.1 mm
11:54 PM 44.6°F7.0°C 41.9°F5.5°C 94% 3.0 mph N4.8 kmh N 7.0 mph11.3 kmh 29.66 in1004.4 mb 0.00 in0.0 mm 0.00 in0.0 mm 2.21 in56.1 mm
11:56 PM 44.5°F6.9°C 41.8°F5.4°C 94% 3.0 mph N4.8 kmh N 7.0 mph11.3 kmh 29.66 in1004.4 mb 0.00 in0.0 mm 0.00 in0.0 mm 2.21 in56.1 mm
11:58 PM 44.5°F6.9°C 41.8°F5.4°C 94% 3.0 mph NW4.8 kmh NW 7.0 mph11.3 kmh 29.66 in1004.4 mb 0.00 in0.0 mm 0.00 in0.0 mm 2.21 in56.1 mm